Observation data for Persimmon Gap on 03/01/2021      Previous  Date  Next       Current Mesonet Observations  Soil Data  Daily Summary Page  Observations in Plain Language
KPG1 010600Z 04023KT 17/07 A2993 RMK A01 T01660067  RH  052%=      5-min Rain = 0
KPG1 010601Z 03022KT 17/07 A2993 RMK A01 T01650067  RH  052%=      5-min Rain = 0
KPG1 010602Z 04022KT 17/07 A2993 RMK A01 T01650066  RH  052%=      5-min Rain = 0
KPG1 010603Z 04021KT 16/07 A2993 RMK A01 T01640066  RH  052%=      5-min Rain = 0
KPG1 010604Z 03020KT 16/07 A2993 RMK A01 T01640065  RH  052%=      5-min Rain = 0
KPG1 010605Z 04021KT 16/06 A2993 RMK A01 T01640064  RH  052%=      5-min Rain = 0
KPG1 010606Z 04020KT 16/06 A2993 RMK A01 T01630063  RH  052%=      5-min Rain = 0
KPG1 010607Z 04018KT 16/06 A2993 RMK A01 T01630063  RH  052%=      5-min Rain = 0
KPG1 010608Z 04018KT 16/06 A2993 RMK A01 T01620063  RH  052%=      5-min Rain = 0
KPG1 010609Z 05017KT 16/06 A2993 RMK A01 T01620063  RH  052%=      5-min Rain = 0
KPG1 010610Z 04016KT 16/06 A2993 RMK A01 T01620062  RH  052%=      5-min Rain = 0
KPG1 010611Z 04016KT 16/06 A2993 RMK A01 T01610062  RH  052%=      5-min Rain = 0
KPG1 010612Z 04017KT 16/06 A2993 RMK A01 T01600062  RH  052%=      5-min Rain = 0
KPG1 010613Z 04020KT 16/06 A2993 RMK A01 T01600062  RH  052%=      5-min Rain = 0
KPG1 010614Z 04021KT 16/06 A2993 RMK A01 T01600061  RH  052%=      5-min Rain = 0
KPG1 010615Z 04020G27KT 16/06 A2993 RMK A01 T01600059  RH  051%=      5-min Rain = 0
KPG1 010616Z 03018KT 16/06 A2993 RMK A01 T01600058  RH  051%=      5-min Rain = 0
KPG1 010617Z 03019KT 16/06 A2993 RMK A01 T01590056  RH  051%=      5-min Rain = 0
KPG1 010618Z 04019G24KT 16/06 A2993 RMK A01 T01590055  RH  050%=      5-min Rain = 0
KPG1 010619Z 05016G23KT 16/05 A2993 RMK A01 T01590054  RH  050%=      5-min Rain = 0
KPG1 010620Z 04017G23KT 16/05 A2993 RMK A01 T01580053  RH  050%=      5-min Rain = 0
KPG1 010621Z 04018KT 16/05 A2993 RMK A01 T01580052  RH  049%=      5-min Rain = 0
KPG1 010622Z 04018KT 16/05 A2993 RMK A01 T01570051  RH  049%=      5-min Rain = 0
KPG1 010623Z 04018KT 16/05 A2993 RMK A01 T01570050  RH  049%=      5-min Rain = 0
KPG1 010624Z 05015KT 16/05 A2993 RMK A01 T01560050  RH  049%=      5-min Rain = 0
KPG1 010625Z 04015KT 16/05 A2993 RMK A01 T01560050  RH  049%=      5-min Rain = 0
KPG1 010626Z 05015KT 16/05 A2993 RMK A01 T01550050  RH  049%=      5-min Rain = 0
KPG1 010627Z 05015KT 15/05 A2993 RMK A01 T01540049  RH  050%=      5-min Rain = 0
KPG1 010628Z 05016KT 15/05 A2994 RMK A01 T01540049  RH  050%=      5-min Rain = 0
KPG1 010629Z 04018KT 15/05 A2994 RMK A01 T01540049  RH  050%=      5-min Rain = 0
KPG1 010630Z 04018KT 15/05 A2994 RMK A01 T01540049  RH  050%=      5-min Rain = 0
KPG1 010631Z 04017KT 15/05 A2994 RMK A01 T01540049  RH  050%=      5-min Rain = 0
KPG1 010632Z 04018KT 15/05 A2994 RMK A01 T01530049  RH  050%=      5-min Rain = 0
KPG1 010633Z 05017G22KT 15/05 A2994 RMK A01 T01530048  RH  050%=      5-min Rain = 0
KPG1 010634Z 04016KT 15/05 A2994 RMK A01 T01530048  RH  050%=      5-min Rain = 0
KPG1 010635Z 03018KT 15/05 A2994 RMK A01 T01520048  RH  050%=      5-min Rain = 0
KPG1 010636Z 04017KT 15/05 A2994 RMK A01 T01520048  RH  050%=      5-min Rain = 0
KPG1 010637Z 03020G28KT 15/05 A2994 RMK A01 T01520047  RH  049%=      5-min Rain = 0
KPG1 010638Z 04020KT 15/05 A2994 RMK A01 T01520045  RH  049%=      5-min Rain = 0
KPG1 010639Z 03022KT 15/05 A2994 RMK A01 T01510045  RH  049%=      5-min Rain = 0
KPG1 010640Z 04021G26KT 15/04 A2994 RMK A01 T01510044  RH  049%=      5-min Rain = 0
KPG1 010641Z 04020G25KT 15/04 A2994 RMK A01 T01500042  RH  048%=      5-min Rain = 0
KPG1 010642Z 04023KT 15/04 A2994 RMK A01 T01490040  RH  048%=      5-min Rain = 0
KPG1 010643Z 04021KT 15/04 A2994 RMK A01 T01490039  RH  048%=      5-min Rain = 0
KPG1 010644Z 04021KT 15/04 A2994 RMK A01 T01490039  RH  048%=      5-min Rain = 0
KPG1 010645Z 04021KT 15/04 A2994 RMK A01 T01490039  RH  048%=      5-min Rain = 0
KPG1 010646Z 04019KT 15/04 A2994 RMK A01 T01490039  RH  048%=      5-min Rain = 0
KPG1 010647Z 04021KT 15/04 A2994 RMK A01 T01490038  RH  047%=      5-min Rain = 0
KPG1 010648Z 03020KT 15/04 A2995 RMK A01 T01480037  RH  047%=      5-min Rain = 0
KPG1 010649Z 04020KT 15/04 A2995 RMK A01 T01480037  RH  047%=      5-min Rain = 0
KPG1 010650Z 04019KT 15/04 A2995 RMK A01 T01470036  RH  047%=      5-min Rain = 0
KPG1 010651Z 03019KT 15/04 A2995 RMK A01 T01470036  RH  047%=      5-min Rain = 0
KPG1 010652Z 03019KT 15/04 A2995 RMK A01 T01460036  RH  048%=      5-min Rain = 0
KPG1 010653Z 03018KT 15/04 A2995 RMK A01 T01460036  RH  048%=      5-min Rain = 0
KPG1 010654Z 03019KT 15/04 A2995 RMK A01 T01450035  RH  047%=      5-min Rain = 0
KPG1 010655Z 03021KT 15/03 A2995 RMK A01 T01450034  RH  047%=      5-min Rain = 0
KPG1 010656Z 03020KT 15/03 A2995 RMK A01 T01450033  RH  047%=      5-min Rain = 0
KPG1 010657Z 03019KT 14/03 A2995 RMK A01 T01440032  RH  047%=      5-min Rain = 0
KPG1 010658Z 03019KT 14/03 A2995 RMK A01 T01440031  RH  047%=      5-min Rain = 0
KPG1 010659Z 03019KT 14/03 A2995 RMK A01 T01430031  RH  047%=      5-min Rain = 0
KPG1 010700Z 04021KT 14/03 A2995 RMK A01 T01430030  RH  047%=      5-min Rain = 0
KPG1 010701Z 04021KT 14/03 A2996 RMK A01 T01430030  RH  047%=      5-min Rain = 0
KPG1 010702Z 04021KT 14/03 A2996 RMK A01 T01430030  RH  046%=      5-min Rain = 0
KPG1 010703Z 04020KT 14/03 A2995 RMK A01 T01430029  RH  046%=      5-min Rain = 0
KPG1 010704Z 04021KT 14/03 A2995 RMK A01 T01430030  RH  046%=      5-min Rain = 0
KPG1 010705Z 03020KT 14/03 A2996 RMK A01 T01420029  RH  046%=      5-min Rain = 0
KPG1 010706Z 04019G24KT 14/03 A2996 RMK A01 T01420029  RH  046%=      5-min Rain = 0
KPG1 010707Z 04020KT 14/03 A2996 RMK A01 T01420029  RH  046%=      5-min Rain = 0
KPG1 010708Z 04019G24KT 14/03 A2996 RMK A01 T01420029  RH  046%=      5-min Rain = 0
KPG1 010709Z 03017G23KT 14/03 A2996 RMK A01 T01420029  RH  046%=      5-min Rain = 0
KPG1 010710Z 04018KT 14/03 A2996 RMK A01 T01420029  RH  046%=      5-min Rain = 0
KPG1 010711Z 04016KT 14/03 A2996 RMK A01 T01420029  RH  047%=      5-min Rain = 0
KPG1 010712Z 04019KT 14/03 A2996 RMK A01 T01410029  RH  047%=      5-min Rain = 0
KPG1 010713Z 03020KT 14/03 A2996 RMK A01 T01410029  RH  047%=      5-min Rain = 0
KPG1 010714Z 05018KT 14/03 A2996 RMK A01 T01410029  RH  047%=      5-min Rain = 0
KPG1 010715Z 04019KT 14/03 A2997 RMK A01 T01410030  RH  047%=      5-min Rain = 0
KPG1 010716Z 04020KT 14/03 A2997 RMK A01 T01400029  RH  047%=      5-min Rain = 0
KPG1 010717Z 03020KT 14/03 A2997 RMK A01 T01410029  RH  047%=      5-min Rain = 0
KPG1 010718Z 04018KT 14/03 A2997 RMK A01 T01400030  RH  047%=      5-min Rain = 0
KPG1 010719Z 04020KT 14/03 A2997 RMK A01 T01400030  RH  047%=      5-min Rain = 0
KPG1 010720Z 04018KT 14/03 A2997 RMK A01 T01400030  RH  047%=      5-min Rain = 0
KPG1 010721Z 04019KT 14/03 A2998 RMK A01 T01400030  RH  047%=      5-min Rain = 0
KPG1 010722Z 04019KT 14/03 A2998 RMK A01 T01400030  RH  047%=      5-min Rain = 0
KPG1 010723Z 04019KT 14/03 A2998 RMK A01 T01400030  RH  047%=      5-min Rain = 0
KPG1 010724Z 04017KT 14/03 A2998 RMK A01 T01400030  RH  047%=      5-min Rain = 0
KPG1 010725Z 04017KT 14/03 A2998 RMK A01 T01400030  RH  047%=      5-min Rain = 0
KPG1 010726Z 04017KT 14/03 A2998 RMK A01 T01400030  RH  047%=      5-min Rain = 0
KPG1 010727Z 05016KT 14/03 A2998 RMK A01 T01400030  RH  047%=      5-min Rain = 0
KPG1 010728Z 04015KT 14/03 A2998 RMK A01 T01390029  RH  047%=      5-min Rain = 0
KPG1 010729Z 04017KT 14/03 A2998 RMK A01 T01390030  RH  048%=      5-min Rain = 0
KPG1 010730Z 04016KT 14/03 A2998 RMK A01 T01390028  RH  047%=      5-min Rain = 0
KPG1 010731Z 04016KT 14/03 A2997 RMK A01 T01390028  RH  047%=      5-min Rain = 0
KPG1 010732Z 04017KT 14/03 A2997 RMK A01 T01380028  RH  047%=      5-min Rain = 0
KPG1 010733Z 04015KT 14/03 A2997 RMK A01 T01380028  RH  047%=      5-min Rain = 0
KPG1 010734Z 05018KT 14/03 A2997 RMK A01 T01380028  RH  047%=      5-min Rain = 0
KPG1 010735Z 04017KT 14/03 A2997 RMK A01 T01380027  RH  047%=      5-min Rain = 0
KPG1 010736Z 05015KT 14/03 A2998 RMK A01 T01380027  RH  047%=      5-min Rain = 0
KPG1 010737Z 05017KT 14/03 A2998 RMK A01 T01370027  RH  047%=      5-min Rain = 0
KPG1 010738Z 04016KT 14/03 A2998 RMK A01 T01370027  RH  047%=      5-min Rain = 0
KPG1 010739Z 04014KT 14/03 A2997 RMK A01 T01370027  RH  047%=      5-min Rain = 0
KPG1 010740Z 04017KT 14/03 A2997 RMK A01 T01370027  RH  047%=      5-min Rain = 0
KPG1 010741Z 04016KT 14/03 A2997 RMK A01 T01360026  RH  047%=      5-min Rain = 0
KPG1 010742Z 04015KT 14/03 A2998 RMK A01 T01360026  RH  048%=      5-min Rain = 0
KPG1 010743Z 05014KT 14/03 A2998 RMK A01 T01350026  RH  048%=      5-min Rain = 0
KPG1 010744Z 05014KT 14/03 A2998 RMK A01 T01350027  RH  048%=      5-min Rain = 0
KPG1 010745Z 05013KT 13/03 A2998 RMK A01 T01340027  RH  048%=      5-min Rain = 0
KPG1 010746Z 05013G18KT 13/03 A2998 RMK A01 T01340026  RH  048%=      5-min Rain = 0
KPG1 010747Z 06014KT 13/03 A2998 RMK A01 T01330026  RH  048%=      5-min Rain = 0
KPG1 010748Z 05014KT 13/03 A2998 RMK A01 T01330027  RH  048%=      5-min Rain = 0
KPG1 010749Z 05015KT 13/03 A2998 RMK A01 T01330026  RH  048%=      5-min Rain = 0
KPG1 010750Z 05015KT 13/03 A2998 RMK A01 T01330026  RH  048%=      5-min Rain = 0
KPG1 010751Z 05015KT 13/03 A2999 RMK A01 T01320026  RH  048%=      5-min Rain = 0
KPG1 010752Z 05016KT 13/03 A2999 RMK A01 T01320026  RH  049%=      5-min Rain = 0
KPG1 010753Z 05016KT 13/03 A2998 RMK A01 T01320026  RH  049%=      5-min Rain = 0
KPG1 010754Z 05017KT 13/03 A2998 RMK A01 T01310025  RH  049%=      5-min Rain = 0
KPG1 010755Z 06017KT 13/03 A2998 RMK A01 T01310025  RH  049%=      5-min Rain = 0
KPG1 010756Z 06016KT 13/03 A2998 RMK A01 T01300025  RH  049%=      5-min Rain = 0
KPG1 010757Z 06017KT 13/03 A2998 RMK A01 T01300025  RH  049%=      5-min Rain = 0
KPG1 010758Z 06017KT 13/02 A2998 RMK A01 T01300024  RH  049%=      5-min Rain = 0
KPG1 010759Z 06018KT 13/02 A2998 RMK A01 T01300024  RH  049%=      5-min Rain = 0
KPG1 010800Z 06016KT 13/02 A2998 RMK A01 T01290024  RH  049%=      5-min Rain = 0
KPG1 010801Z 05016KT 13/02 A2998 RMK A01 T01290024  RH  049%=      5-min Rain = 0
KPG1 010802Z 05015KT 13/02 A2998 RMK A01 T01290024  RH  049%=      5-min Rain = 0
KPG1 010803Z 05017KT 13/02 A2998 RMK A01 T01280024  RH  049%=      5-min Rain = 0
KPG1 010804Z 05014KT 13/02 A2998 RMK A01 T01280024  RH  049%=      5-min Rain = 0
KPG1 010805Z 05016KT 13/02 A2998 RMK A01 T01280024  RH  049%=      5-min Rain = 0
KPG1 010806Z 05012KT 13/02 A2999 RMK A01 T01280024  RH  049%=      5-min Rain = 0
KPG1 010807Z 05014KT 13/02 A2999 RMK A01 T01270023  RH  049%=      5-min Rain = 0
KPG1 010808Z 05013KT 13/02 A2999 RMK A01 T01270023  RH  049%=      5-min Rain = 0
KPG1 010809Z 05015KT 13/02 A2999 RMK A01 T01270023  RH  049%=      5-min Rain = 0
KPG1 010810Z 06016KT 13/02 A2999 RMK A01 T01260023  RH  049%=      5-min Rain = 0
KPG1 010811Z 05017KT 13/02 A2999 RMK A01 T01260023  RH  049%=      5-min Rain = 0
KPG1 010812Z 05015KT 13/02 A2999 RMK A01 T01260022  RH  049%=      5-min Rain = 0
KPG1 010813Z 05015KT 13/02 A2999 RMK A01 T01260023  RH  049%=      5-min Rain = 0
KPG1 010814Z 05013KT 13/02 A2999 RMK A01 T01260022  RH  049%=      5-min Rain = 0
KPG1 010815Z 05013KT 13/02 A2999 RMK A01 T01260023  RH  049%=      5-min Rain = 0
KPG1 010816Z 05013KT 13/02 A2999 RMK A01 T01250022  RH  050%=      5-min Rain = 0
KPG1 010817Z 05012KT 13/02 A2999 RMK A01 T01250022  RH  050%=      5-min Rain = 0
KPG1 010818Z 05012KT 12/02 A2999 RMK A01 T01240022  RH  050%=      5-min Rain = 0
KPG1 010819Z 05015KT 12/02 A2999 RMK A01 T01240022  RH  050%=      5-min Rain = 0
KPG1 010820Z 05012KT 12/02 A2999 RMK A01 T01240022  RH  050%=      5-min Rain = 0
KPG1 010821Z 05013KT 12/02 A2999 RMK A01 T01240022  RH  050%=      5-min Rain = 0
KPG1 010822Z 05015KT 12/02 A2999 RMK A01 T01240021  RH  050%=      5-min Rain = 0
KPG1 010823Z 05018KT 12/02 A2999 RMK A01 T01240021  RH  049%=      5-min Rain = 0
KPG1 010824Z 05015KT 12/02 A2999 RMK A01 T01240020  RH  049%=      5-min Rain = 0
KPG1 010825Z 05012KT 12/02 A2999 RMK A01 T01240020  RH  049%=      5-min Rain = 0
KPG1 010826Z 04014KT 12/02 A30 RMK A01 T01240020  RH  049%=      5-min Rain = 0
KPG1 010827Z 05014G19KT 12/02 A30 RMK A01 T01230020  RH  049%=      5-min Rain = 0
KPG1 010828Z 05014KT 12/02 A2999 RMK A01 T01230020  RH  049%=      5-min Rain = 0
KPG1 010829Z 05014KT 12/02 A2999 RMK A01 T01230019  RH  049%=      5-min Rain = 0
KPG1 010830Z 05013KT 12/02 A2999 RMK A01 T01220019  RH  049%=      5-min Rain = 0
KPG1 010831Z 05016KT 12/02 A2999 RMK A01 T01220019  RH  049%=      5-min Rain = 0
KPG1 010832Z 05016KT 12/02 A2999 RMK A01 T01220017  RH  049%=      5-min Rain = 0
KPG1 010833Z 05015KT 12/02 A2999 RMK A01 T01220017  RH  048%=      5-min Rain = 0
KPG1 010834Z 04014G19KT 12/02 A30 RMK A01 T01220016  RH  048%=      5-min Rain = 0
KPG1 010835Z 05016G21KT 12/02 A30 RMK A01 T01220016  RH  048%=      5-min Rain = 0
KPG1 010836Z 05016KT 12/02 A30 RMK A01 T01220015  RH  048%=      5-min Rain = 0
KPG1 010837Z 05015KT 12/01 A30 RMK A01 T01220014  RH  048%=      5-min Rain = 0
KPG1 010838Z 05014KT 12/01 A30 RMK A01 T01220014  RH  047%=      5-min Rain = 0
KPG1 010839Z 05016KT 12/01 A30 RMK A01 T01220014  RH  047%=      5-min Rain = 0
KPG1 010840Z 05015KT 12/01 A30 RMK A01 T01220013  RH  047%=      5-min Rain = 0
KPG1 010841Z 06014KT 12/01 A30 RMK A01 T01210013  RH  048%=      5-min Rain = 0
KPG1 010842Z 05015KT 12/01 A30 RMK A01 T01210013  RH  048%=      5-min Rain = 0
KPG1 010843Z 05014KT 12/01 A30 RMK A01 T01200013  RH  048%=      5-min Rain = 0
KPG1 010844Z 06016KT 12/01 A30 RMK A01 T01200012  RH  048%=      5-min Rain = 0
KPG1 010845Z 05017KT 12/01 A30 RMK A01 T01200011  RH  047%=      5-min Rain = 0
KPG1 010846Z 05015KT 12/01 A30 RMK A01 T01190010  RH  047%=      5-min Rain = 0
KPG1 010847Z 05016KT 12/01 A30 RMK A01 T01190009  RH  047%=      5-min Rain = 0
KPG1 010848Z 05016KT 12/01 A30 RMK A01 T01190010  RH  047%=      5-min Rain = 0
KPG1 010849Z 06015KT 12/01 A30 RMK A01 T01190008  RH  047%=      5-min Rain = 0
KPG1 010850Z 04016G21KT 12/01 A3001 RMK A01 T01190008  RH  046%=      5-min Rain = 0
KPG1 010851Z 05015KT 12/01 A30 RMK A01 T01190007  RH  046%=      5-min Rain = 0
KPG1 010852Z 05014KT 12/01 A30 RMK A01 T01190007  RH  046%=      5-min Rain = 0
KPG1 010853Z 05015KT 12/01 A3001 RMK A01 T01180007  RH  046%=      5-min Rain = 0
KPG1 010854Z 05017KT 12/01 A3001 RMK A01 T01180006  RH  046%=      5-min Rain = 0
KPG1 010855Z 04014KT 12/00 A3001 RMK A01 T01180004  RH  046%=      5-min Rain = 0
KPG1 010856Z 04014KT 12/00 A3001 RMK A01 T01180004  RH  046%=      5-min Rain = 0
KPG1 010857Z 04016KT 12/00 A3001 RMK A01 T01170004  RH  046%=      5-min Rain = 0
KPG1 010858Z 04017KT 12/00 A3001 RMK A01 T01160004  RH  046%=      5-min Rain = 0
KPG1 010859Z 04017KT 12/00 A3001 RMK A01 T01160002  RH  046%=      5-min Rain = 0
KPG1 010900Z 03018KT 12/00 A30 RMK A01 T01160002  RH  045%=      5-min Rain = 0
KPG1 010901Z 03019KT 12/00 A30 RMK A01 T01160001  RH  045%=      5-min Rain = 0
KPG1 010902Z 04019KT 12/00 A3001 RMK A01 T01160000  RH  045%=      5-min Rain = 0
KPG1 010903Z 04018KT 12/00 A3001 RMK A01 T011600-0  RH  045%=      5-min Rain = 0
KPG1 010904Z 04018KT 12/00 A3001 RMK A01 T011500-0  RH  045%=      5-min Rain = 0
KPG1 010905Z 04017KT 12/M00 A3001 RMK A01 T01151001  RH  045%=      5-min Rain = 0
KPG1 010906Z 03017G22KT 12/M00 A3001 RMK A01 T01151001  RH  045%=      5-min Rain = 0
KPG1 010907Z 03018KT 12/M00 A3001 RMK A01 T01151001  RH  045%=      5-min Rain = 0
KPG1 010908Z 03018KT 12/M00 A3001 RMK A01 T01151001  RH  045%=      5-min Rain = 0
KPG1 010909Z 03017KT 12/M00 A3001 RMK A01 T01151001  RH  045%=      5-min Rain = 0
KPG1 010910Z 03017KT 11/M00 A3001 RMK A01 T01141001  RH  045%=      5-min Rain = 0
KPG1 010911Z 03017KT 11/M00 A3001 RMK A01 T01141001  RH  045%=      5-min Rain = 0
KPG1 010912Z 03017KT 11/M00 A3001 RMK A01 T01141001  RH  045%=      5-min Rain = 0
KPG1 010913Z 03019KT 11/M00 A3001 RMK A01 T01131002  RH  045%=      5-min Rain = 0
KPG1 010914Z 04018KT 11/M00 A3001 RMK A01 T01131002  RH  045%=      5-min Rain = 0
KPG1 010915Z 03018G24KT 11/M00 A3001 RMK A01 T01131002  RH  045%=      5-min Rain = 0
KPG1 010916Z 03016KT 11/M00 A3001 RMK A01 T01131002  RH  045%=      5-min Rain = 0
KPG1 010917Z 03018KT 11/M00 A3001 RMK A01 T01131002  RH  045%=      5-min Rain = 0
KPG1 010918Z 03017KT 11/M00 A3001 RMK A01 T01131002  RH  045%=      5-min Rain = 0
KPG1 010919Z 03017G22KT 11/M00 A3001 RMK A01 T01131003  RH  045%=      5-min Rain = 0
KPG1 010920Z 04015G20KT 11/M00 A3001 RMK A01 T01131003  RH  045%=      5-min Rain = 0
KPG1 010921Z 03014KT 11/M00 A3001 RMK A01 T01121003  RH  045%=      5-min Rain = 0
KPG1 010922Z 03014KT 11/M00 A3001 RMK A01 T01121003  RH  045%=      5-min Rain = 0
KPG1 010923Z 03015KT 11/M00 A3002 RMK A01 T01111003  RH  045%=      5-min Rain = 0
KPG1 010924Z 04013KT 11/M00 A3002 RMK A01 T01111003  RH  045%=      5-min Rain = 0
KPG1 010925Z 04014KT 11/M00 A3002 RMK A01 T01111003  RH  045%=      5-min Rain = 0
KPG1 010926Z 04014KT 11/M00 A3001 RMK A01 T01101004  RH  045%=      5-min Rain = 0
KPG1 010927Z 03017KT 11/M00 A3001 RMK A01 T01101004  RH  045%=      5-min Rain = 0
KPG1 010928Z 03015KT 11/M00 A3001 RMK A01 T01101004  RH  045%=      5-min Rain = 0
KPG1 010929Z 04015KT 11/M01 A3001 RMK A01 T01101005  RH  045%=      5-min Rain = 0
KPG1 010930Z 04014KT 11/M01 A3001 RMK A01 T01091005  RH  045%=      5-min Rain = 0
KPG1 010931Z 04013KT 11/M01 A3001 RMK A01 T01091005  RH  045%=      5-min Rain = 0
KPG1 010932Z 04013KT 11/M01 A3002 RMK A01 T01091005  RH  045%=      5-min Rain = 0
KPG1 010933Z 03015KT 11/M01 A3002 RMK A01 T01091005  RH  045%=      5-min Rain = 0
KPG1 010934Z 04013KT 11/M01 A3002 RMK A01 T01091005  RH  045%=      5-min Rain = 0
KPG1 010935Z 04016KT 11/M01 A3002 RMK A01 T01091006  RH  045%=      5-min Rain = 0
KPG1 010936Z 03013KT 11/M01 A3002 RMK A01 T01091006  RH  045%=      5-min Rain = 0
KPG1 010937Z 04016KT 11/M01 A3002 RMK A01 T01081006  RH  045%=      5-min Rain = 0
KPG1 010938Z 04014KT 11/M01 A3002 RMK A01 T01081007  RH  045%=      5-min Rain = 0
KPG1 010939Z 04014KT 11/M01 A3002 RMK A01 T01091007  RH  045%=      5-min Rain = 0
KPG1 010940Z 03013KT 11/M01 A3003 RMK A01 T01091007  RH  045%=      5-min Rain = 0
KPG1 010941Z 03014KT 11/M01 A3003 RMK A01 T01081007  RH  045%=      5-min Rain = 0
KPG1 010942Z 04013KT 11/M01 A3003 RMK A01 T01081007  RH  045%=      5-min Rain = 0
KPG1 010943Z 04014KT 11/M01 A3002 RMK A01 T01081007  RH  045%=      5-min Rain = 0
KPG1 010944Z 04013KT 11/M01 A3002 RMK A01 T01081007  RH  045%=      5-min Rain = 0
KPG1 010945Z 03014KT 11/M01 A3002 RMK A01 T01081008  RH  045%=      5-min Rain = 0
KPG1 010946Z 04012KT 11/M01 A3002 RMK A01 T01081008  RH  045%=      5-min Rain = 0
KPG1 010947Z 04013KT 11/M01 A3003 RMK A01 T01071008  RH  045%=      5-min Rain = 0
KPG1 010948Z 04016KT 11/M01 A3003 RMK A01 T01071008  RH  045%=      5-min Rain = 0
KPG1 010949Z 04015KT 11/M01 A3003 RMK A01 T01071009  RH  045%=      5-min Rain = 0
KPG1 010950Z 03015KT 11/M01 A3003 RMK A01 T01071009  RH  045%=      5-min Rain = 0
KPG1 010951Z 04014KT 11/M01 A3003 RMK A01 T01071009  RH  045%=      5-min Rain = 0
KPG1 010952Z 03015KT 11/M01 A3003 RMK A01 T01071009  RH  044%=      5-min Rain = 0
KPG1 010953Z 03016KT 11/M01 A3003 RMK A01 T01071009  RH  044%=      5-min Rain = 0
KPG1 010954Z 03015KT 11/M01 A3003 RMK A01 T01071010  RH  044%=      5-min Rain = 0
KPG1 010955Z 03015G21KT 11/M01 A3003 RMK A01 T01071010  RH  044%=      5-min Rain = 0
KPG1 010956Z 03016KT 11/M01 A3003 RMK A01 T01071010  RH  044%=      5-min Rain = 0
KPG1 010957Z 03016KT 11/M01 A3003 RMK A01 T01071010  RH  044%=      5-min Rain = 0
KPG1 010958Z 03017KT 11/M01 A3003 RMK A01 T01071010  RH  044%=      5-min Rain = 0
KPG1 010959Z 03016KT 11/M01 A3003 RMK A01 T01061011  RH  044%=      5-min Rain = 0
KPG1 011000Z 03017KT 11/M01 A3003 RMK A01 T01061011  RH  044%=      5-min Rain = 0
KPG1 011001Z 04016KT 11/M01 A3003 RMK A01 T01061011  RH  044%=      5-min Rain = 0
KPG1 011002Z 03016KT 11/M01 A3003 RMK A01 T01061011  RH  044%=      5-min Rain = 0
KPG1 011003Z 03016KT 11/M01 A3003 RMK A01 T01061011  RH  044%=      5-min Rain = 0
KPG1 011004Z 03016KT 11/M01 A3003 RMK A01 T01051011  RH  044%=      5-min Rain = 0
KPG1 011005Z 03017KT 11/M01 A3003 RMK A01 T01051011  RH  044%=      5-min Rain = 0
KPG1 011006Z 03015KT 11/M01 A3003 RMK A01 T01051011  RH  044%=      5-min Rain = 0
KPG1 011007Z 03016KT 11/M01 A3003 RMK A01 T01051012  RH  044%=      5-min Rain = 0
KPG1 011008Z 03016KT 10/M01 A3003 RMK A01 T01041012  RH  044%=      5-min Rain = 0
KPG1 011009Z 03016G22KT 10/M01 A3004 RMK A01 T01041012  RH  044%=      5-min Rain = 0
KPG1 011010Z 03015KT 10/M01 A3004 RMK A01 T01041012  RH  044%=      5-min Rain = 0
KPG1 011011Z 03016G21KT 10/M01 A3004 RMK A01 T01041012  RH  045%=      5-min Rain = 0
KPG1 011012Z 03016G22KT 10/M01 A3004 RMK A01 T01041012  RH  044%=      5-min Rain = 0
KPG1 011013Z 03016G22KT 10/M01 A3004 RMK A01 T01031012  RH  045%=      5-min Rain = 0
KPG1 011014Z 03015KT 10/M01 A3004 RMK A01 T01031012  RH  045%=      5-min Rain = 0
KPG1 011015Z 03014KT 10/M01 A3004 RMK A01 T01021012  RH  045%=      5-min Rain = 0
KPG1 011016Z 04014KT 10/M01 A3004 RMK A01 T01011012  RH  045%=      5-min Rain = 0
KPG1 011017Z 03013KT 10/M01 A3004 RMK A01 T01011011  RH  046%=      5-min Rain = 0
KPG1 011018Z 03013KT 10/M01 A3004 RMK A01 T01001011  RH  046%=      5-min Rain = 0
KPG1 011019Z 04013KT 10/M01 A3004 RMK A01 T00991011  RH  046%=      5-min Rain = 0
KPG1 011020Z 03013KT 10/M01 A3004 RMK A01 T00991012  RH  046%=      5-min Rain = 0
KPG1 011021Z 03013KT 10/M01 A3004 RMK A01 T00991011  RH  046%=      5-min Rain = 0
KPG1 011022Z 04015KT 10/M01 A3004 RMK A01 T00981011  RH  046%=      5-min Rain = 0
KPG1 011023Z 03013KT 10/M01 A3004 RMK A01 T00981011  RH  046%=      5-min Rain = 0
KPG1 011024Z 03013KT 10/M01 A3004 RMK A01 T00981011  RH  047%=      5-min Rain = 0
KPG1 011025Z 03013KT 10/M01 A3004 RMK A01 T00971011  RH  047%=      5-min Rain = 0
KPG1 011026Z 03013KT 10/M01 A3004 RMK A01 T00971011  RH  047%=      5-min Rain = 0
KPG1 011027Z 03013KT 10/M01 A3005 RMK A01 T00971011  RH  047%=      5-min Rain = 0
KPG1 011028Z 03012KT 10/M01 A3005 RMK A01 T00971011  RH  047%=      5-min Rain = 0
KPG1 011029Z 03012KT 10/M01 A3005 RMK A01 T00961011  RH  047%=      5-min Rain = 0
KPG1 011030Z 03013KT 10/M01 A3005 RMK A01 T00961011  RH  047%=      5-min Rain = 0
KPG1 011031Z 03012KT 10/M01 A3005 RMK A01 T00961011  RH  047%=      5-min Rain = 0
KPG1 011032Z 03013KT 10/M01 A3005 RMK A01 T00961011  RH  047%=      5-min Rain = 0
KPG1 011033Z 03013KT 10/M01 A3005 RMK A01 T00961011  RH  047%=      5-min Rain = 0
KPG1 011034Z 04013KT 10/M01 A3005 RMK A01 T00961012  RH  047%=      5-min Rain = 0
KPG1 011035Z 03014KT 10/M01 A3005 RMK A01 T00961012  RH  047%=      5-min Rain = 0
KPG1 011036Z 03014KT 10/M01 A3005 RMK A01 T00961012  RH  047%=      5-min Rain = 0
KPG1 011037Z 04014KT 10/M01 A3005 RMK A01 T00961012  RH  047%=      5-min Rain = 0
KPG1 011038Z 04013KT 10/M01 A3005 RMK A01 T00961013  RH  047%=      5-min Rain = 0
KPG1 011039Z 03012KT 10/M01 A3005 RMK A01 T00971013  RH  046%=      5-min Rain = 0
KPG1 011040Z 04014KT 10/M01 A3005 RMK A01 T00971013  RH  046%=      5-min Rain = 0
KPG1 011041Z 03014KT 10/M01 A3005 RMK A01 T00971013  RH  046%=      5-min Rain = 0
KPG1 011042Z 04015KT 10/M01 A3005 RMK A01 T00971014  RH  046%=      5-min Rain = 0
KPG1 011043Z 03014KT 10/M01 A3005 RMK A01 T00971014  RH  046%=      5-min Rain = 0
KPG1 011044Z 03014KT 10/M01 A3005 RMK A01 T00971014  RH  046%=      5-min Rain = 0
KPG1 011045Z 03013KT 10/M01 A3005 RMK A01 T00971014  RH  046%=      5-min Rain = 0
KPG1 011046Z 03016KT 10/M01 A3005 RMK A01 T00971014  RH  046%=      5-min Rain = 0
KPG1 011047Z 03016KT 10/M02 A3005 RMK A01 T00971015  RH  046%=      5-min Rain = 0
KPG1 011048Z 03016KT 10/M02 A3005 RMK A01 T00971015  RH  045%=      5-min Rain = 0
KPG1 011049Z 03016KT 10/M02 A3005 RMK A01 T00981016  RH  045%=      5-min Rain = 0
KPG1 011050Z 03015KT 10/M02 A3005 RMK A01 T00981016  RH  045%=      5-min Rain = 0
KPG1 011051Z 03015KT 10/M02 A3005 RMK A01 T00981016  RH  045%=      5-min Rain = 0
KPG1 011052Z 03015KT 10/M02 A3005 RMK A01 T00981016  RH  045%=      5-min Rain = 0
KPG1 011053Z 03016KT 10/M02 A3005 RMK A01 T00981016  RH  045%=      5-min Rain = 0
KPG1 011054Z 04013KT 10/M02 A3005 RMK A01 T00981017  RH  045%=      5-min Rain = 0
KPG1 011055Z 03014G19KT 10/M02 A3006 RMK A01 T00981016  RH  045%=      5-min Rain = 0
KPG1 011056Z 03014KT 10/M02 A3006 RMK A01 T00981016  RH  045%=      5-min Rain = 0
KPG1 011057Z 03013KT 10/M02 A3006 RMK A01 T00981016  RH  045%=      5-min Rain = 0
KPG1 011058Z 03015KT 10/M02 A3006 RMK A01 T00971017  RH  045%=      5-min Rain = 0
KPG1 011059Z 03013KT 10/M02 A3006 RMK A01 T00971017  RH  045%=      5-min Rain = 0
KPG1 011100Z 03015KT 10/M02 A3006 RMK A01 T00971017  RH  045%=      5-min Rain = 0
KPG1 011101Z 03013KT 10/M02 A3006 RMK A01 T00971017  RH  045%=      5-min Rain = 0
KPG1 011102Z 03016KT 10/M02 A3006 RMK A01 T00971017  RH  045%=      5-min Rain = 0
KPG1 011103Z 04015KT 10/M02 A3006 RMK A01 T00971017  RH  045%=      5-min Rain = 0
KPG1 011104Z 04015KT 10/M02 A3006 RMK A01 T00971017  RH  045%=      5-min Rain = 0
KPG1 011105Z 04014G19KT 10/M02 A3005 RMK A01 T00971017  RH  045%=      5-min Rain = 0
KPG1 011106Z 04014G19KT 10/M02 A3006 RMK A01 T00961017  RH  045%=      5-min Rain = 0
KPG1 011107Z 03015KT 10/M02 A3006 RMK A01 T00961018  RH  045%=      5-min Rain = 0
KPG1 011108Z 03015KT 10/M02 A3006 RMK A01 T00961018  RH  045%=      5-min Rain = 0
KPG1 011109Z 03014KT 10/M02 A3006 RMK A01 T00961017  RH  045%=      5-min Rain = 0
KPG1 011110Z 03012KT 10/M02 A3006 RMK A01 T00961017  RH  045%=      5-min Rain = 0
KPG1 011111Z 03013KT 10/M02 A3006 RMK A01 T00961017  RH  045%=      5-min Rain = 0
KPG1 011112Z 03014KT 10/M02 A3006 RMK A01 T00961017  RH  045%=      5-min Rain = 0
KPG1 011113Z 03014KT 10/M02 A3006 RMK A01 T00951018  RH  045%=      5-min Rain = 0
KPG1 011114Z 03012KT 10/M02 A3006 RMK A01 T00951018  RH  045%=      5-min Rain = 0
KPG1 011115Z 04014KT 10/M02 A3006 RMK A01 T00951018  RH  045%=      5-min Rain = 0
KPG1 011116Z 05012KT 10/M02 A3006 RMK A01 T00951018  RH  045%=      5-min Rain = 0
KPG1 011117Z 03012KT 10/M02 A3006 RMK A01 T00951018  RH  045%=      5-min Rain = 0
KPG1 011118Z 03014KT 09/M02 A3006 RMK A01 T00941018  RH  045%=      5-min Rain = 0
KPG1 011119Z 04012KT 09/M02 A3007 RMK A01 T00941018  RH  045%=      5-min Rain = 0
KPG1 011120Z 03012KT 09/M02 A3007 RMK A01 T00941018  RH  045%=      5-min Rain = 0
KPG1 011121Z 04013KT 09/M02 A3007 RMK A01 T00941018  RH  045%=      5-min Rain = 0
KPG1 011122Z 04013KT 09/M02 A3007 RMK A01 T00941018  RH  045%=      5-min Rain = 0
KPG1 011123Z 03013KT 09/M02 A3007 RMK A01 T00941018  RH  045%=      5-min Rain = 0
KPG1 011124Z 04014KT 09/M02 A3007 RMK A01 T00941019  RH  045%=      5-min Rain = 0
KPG1 011125Z 04012KT 09/M02 A3007 RMK A01 T00941018  RH  045%=      5-min Rain = 0
KPG1 011126Z 03014KT 09/M02 A3007 RMK A01 T00941018  RH  045%=      5-min Rain = 0
KPG1 011127Z 04014KT 09/M02 A3007 RMK A01 T00941019  RH  045%=      5-min Rain = 0
KPG1 011128Z 04012KT 09/M02 A3007 RMK A01 T00941019  RH  045%=      5-min Rain = 0
KPG1 011129Z 04014KT 09/M02 A3007 RMK A01 T00941019  RH  045%=      5-min Rain = 0
KPG1 011130Z 04015KT 09/M02 A3007 RMK A01 T00931020  RH  045%=      5-min Rain = 0
KPG1 011131Z 04012KT 09/M02 A3007 RMK A01 T00941019  RH  045%=      5-min Rain = 0
KPG1 011132Z 05012KT 09/M02 A3007 RMK A01 T00931020  RH  045%=      5-min Rain = 0
KPG1 011133Z 04012KT 09/M02 A3007 RMK A01 T00931019  RH  045%=      5-min Rain = 0
KPG1 011134Z 04012KT 09/M02 A3008 RMK A01 T00931019  RH  045%=      5-min Rain = 0
KPG1 011135Z 05012KT 09/M02 A3008 RMK A01 T00921019  RH  046%=      5-min Rain = 0
KPG1 011136Z 04012KT 09/M02 A3008 RMK A01 T00921020  RH  046%=      5-min Rain = 0
KPG1 011137Z 04013KT 09/M02 A3008 RMK A01 T00921020  RH  046%=      5-min Rain = 0
KPG1 011138Z 03013KT 09/M02 A3008 RMK A01 T00921020  RH  045%=      5-min Rain = 0
KPG1 011139Z 04012KT 09/M02 A3008 RMK A01 T00921021  RH  045%=      5-min Rain = 0
KPG1 011140Z 03012KT 09/M02 A3008 RMK A01 T00921020  RH  045%=      5-min Rain = 0
KPG1 011141Z 04011KT 09/M02 A3009 RMK A01 T00921020  RH  045%=      5-min Rain = 0
KPG1 011142Z 04012KT 09/M02 A3009 RMK A01 T00911020  RH  046%=      5-min Rain = 0
KPG1 011143Z 03012KT 09/M02 A3009 RMK A01 T00911020  RH  045%=      5-min Rain = 0
KPG1 011144Z 04012KT 09/M02 A3009 RMK A01 T00911021  RH  046%=      5-min Rain = 0
KPG1 011145Z 05012KT 09/M02 A3009 RMK A01 T00911021  RH  045%=      5-min Rain = 0
KPG1 011146Z 05011KT 09/M02 A3009 RMK A01 T00911021  RH  045%=      5-min Rain = 0
KPG1 011147Z 05010KT 09/M02 A3009 RMK A01 T00911020  RH  046%=      5-min Rain = 0
KPG1 011148Z 04011KT 09/M02 A3009 RMK A01 T00901021  RH  046%=      5-min Rain = 0
KPG1 011149Z 05012KT 09/M02 A3009 RMK A01 T00891021  RH  046%=      5-min Rain = 0
KPG1 011150Z 05010KT 09/M02 A3009 RMK A01 T00891022  RH  045%=      5-min Rain = 0
KPG1 011151Z 05011KT 09/M02 A3009 RMK A01 T00891023  RH  045%=      5-min Rain = 0
KPG1 011152Z 04011KT 09/M02 A3009 RMK A01 T00901022  RH  045%=      5-min Rain = 0
KPG1 011153Z 04012KT 09/M02 A3009 RMK A01 T00901023  RH  045%=      5-min Rain = 0
KPG1 011154Z 05012KT 09/M02 A3009 RMK A01 T00891023  RH  045%=      5-min Rain = 0
KPG1 011155Z 05011KT 09/M02 A3009 RMK A01 T00891024  RH  045%=      5-min Rain = 0
KPG1 011156Z 04010KT 09/M02 A301 RMK A01 T00891024  RH  045%=      5-min Rain = 0
KPG1 011157Z 04012KT 09/M02 A301 RMK A01 T00891024  RH  045%=      5-min Rain = 0
KPG1 011158Z 05010KT 09/M03 A301 RMK A01 T00891025  RH  045%=      5-min Rain = 0
KPG1 011159Z 04010KT 09/M03 A301 RMK A01 T00891025  RH  045%=      5-min Rain = 0
KPG1 011200Z 02013KT 09/M03 A301 RMK A01 T00881025  RH  045%=      5-min Rain = 0
KPG1 011201Z 02015KT 09/M03 A301 RMK A01 T00881027  RH  044%=      5-min Rain = 0
KPG1 011202Z 03014KT 09/M03 A301 RMK A01 T00881026  RH  045%=      5-min Rain = 0
KPG1 011203Z 03012KT 09/M03 A301 RMK A01 T00881025  RH  045%=      5-min Rain = 0
KPG1 011204Z 02011KT 09/M02 A301 RMK A01 T00871021  RH  047%=      5-min Rain = 0
KPG1 011205Z 02011KT 09/M02 A301 RMK A01 T00861020  RH  047%=      5-min Rain = 0
KPG1 011206Z 02012KT 09/M02 A301 RMK A01 T00861020  RH  047%=      5-min Rain = 0
KPG1 011207Z 02012KT 09/M02 A301 RMK A01 T00861020  RH  047%=      5-min Rain = 0
KPG1 011208Z 02014KT 09/M02 A3011 RMK A01 T00861021  RH  047%=      5-min Rain = 0
KPG1 011209Z 02013KT 09/M02 A3011 RMK A01 T00861022  RH  046%=      5-min Rain = 0
KPG1 011210Z 03012KT 09/M02 A3011 RMK A01 T00861023  RH  046%=      5-min Rain = 0
KPG1 011211Z 03012KT 09/M02 A3011 RMK A01 T00861023  RH  046%=      5-min Rain = 0
KPG1 011212Z 02011KT 09/M02 A3011 RMK A01 T00861023  RH  046%=      5-min Rain = 0
KPG1 011213Z 02012KT 09/M02 A3011 RMK A01 T00861022  RH  046%=      5-min Rain = 0
KPG1 011214Z 02013KT 09/M02 A3011 RMK A01 T00861022  RH  047%=      5-min Rain = 0
KPG1 011215Z 02013KT 09/M02 A3011 RMK A01 T00861024  RH  046%=      5-min Rain = 0
KPG1 011216Z 02012KT 09/M02 A3011 RMK A01 T00861023  RH  046%=      5-min Rain = 0
KPG1 011217Z 03012KT 09/M02 A3011 RMK A01 T00861022  RH  047%=      5-min Rain = 0
KPG1 011218Z 03012KT 09/M02 A3011 RMK A01 T00851021  RH  047%=      5-min Rain = 0
KPG1 011219Z 02012KT 09/M02 A3011 RMK A01 T00851020  RH  048%=      5-min Rain = 0
KPG1 011220Z 02012KT 09/M02 A3011 RMK A01 T00851021  RH  047%=      5-min Rain = 0
KPG1 011221Z 02010KT 09/M02 A3012 RMK A01 T00851022  RH  047%=      5-min Rain = 0
KPG1 011222Z 02011KT 09/M02 A3012 RMK A01 T00851022  RH  047%=      5-min Rain = 0
KPG1 011223Z 03011KT 09/M02 A3012 RMK A01 T00851023  RH  047%=      5-min Rain = 0
KPG1 011224Z 02011KT 09/M02 A3012 RMK A01 T00851023  RH  047%=      5-min Rain = 0
KPG1 011225Z 02011KT 09/M02 A3012 RMK A01 T00851022  RH  047%=      5-min Rain = 0
KPG1 011226Z 03012KT 09/M02 A3012 RMK A01 T00851022  RH  047%=      5-min Rain = 0
KPG1 011227Z 02011KT 09/M02 A3012 RMK A01 T00851022  RH  047%=      5-min Rain = 0
KPG1 011228Z 02012KT 09/M02 A3012 RMK A01 T00851022  RH  047%=      5-min Rain = 0
KPG1 011229Z 03011KT 09/M02 A3012 RMK A01 T00851022  RH  047%=      5-min Rain = 0
KPG1 011230Z 03011KT 09/M02 A3013 RMK A01 T00851021  RH  047%=      5-min Rain = 0
KPG1 011231Z 03011KT 08/M02 A3013 RMK A01 T00841021  RH  047%=      5-min Rain = 0
KPG1 011232Z 03011KT 08/M02 A3013 RMK A01 T00841021  RH  047%=      5-min Rain = 0
KPG1 011233Z 03013KT 08/M02 A3013 RMK A01 T00841021  RH  047%=      5-min Rain = 0
KPG1 011234Z 03012KT 09/M02 A3013 RMK A01 T00851021  RH  047%=      5-min Rain = 0
KPG1 011235Z 03011KT 09/M02 A3013 RMK A01 T00851023  RH  047%=      5-min Rain = 0
KPG1 011236Z 03011KT 09/M02 A3013 RMK A01 T00851022  RH  047%=      5-min Rain = 0
KPG1 011237Z 03011KT 09/M02 A3013 RMK A01 T00851023  RH  047%=      5-min Rain = 0
KPG1 011238Z 03011KT 09/M02 A3013 RMK A01 T00851023  RH  047%=      5-min Rain = 0
KPG1 011239Z 03011KT 09/M02 A3013 RMK A01 T00851023  RH  046%=      5-min Rain = 0
KPG1 011240Z 04010KT 09/M02 A3013 RMK A01 T00861023  RH  046%=      5-min Rain = 0
KPG1 011241Z 04011KT 09/M02 A3013 RMK A01 T00861024  RH  046%=      5-min Rain = 0
KPG1 011242Z 04011KT 09/M03 A3014 RMK A01 T00871026  RH  045%=      5-min Rain = 0
KPG1 011243Z 03012KT 09/M03 A3014 RMK A01 T00871028  RH  044%=      5-min Rain = 0
KPG1 011244Z 03012KT 09/M03 A3014 RMK A01 T00881029  RH  043%=      5-min Rain = 0
KPG1 011245Z 03013KT 09/M03 A3014 RMK A01 T00891030  RH  043%=      5-min Rain = 0
KPG1 011246Z 04011KT 09/M03 A3014 RMK A01 T00901031  RH  042%=      5-min Rain = 0
KPG1 011247Z 04011KT 09/M03 A3014 RMK A01 T00901031  RH  042%=      5-min Rain = 0
KPG1 011248Z 05010KT 09/M03 A3014 RMK A01 T00901031  RH  043%=      5-min Rain = 0
KPG1 011249Z 06007KT 09/M03 A3014 RMK A01 T00901031  RH  042%=      5-min Rain = 0
KPG1 011250Z 05009KT 09/M03 A3014 RMK A01 T00901030  RH  043%=      5-min Rain = 0
KPG1 011251Z 06010KT 09/M03 A3014 RMK A01 T00901031  RH  042%=      5-min Rain = 0
KPG1 011252Z 06010KT 09/M03 A3014 RMK A01 T00901033  RH  042%=      5-min Rain = 0
KPG1 011253Z 06009KT 09/M03 A3014 RMK A01 T00901033  RH  042%=      5-min Rain = 0
KPG1 011254Z 06010KT 09/M03 A3015 RMK A01 T00911033  RH  041%=      5-min Rain = 0
KPG1 011255Z 05008KT 09/M03 A3015 RMK A01 T00911033  RH  042%=      5-min Rain = 0
KPG1 011256Z 06007KT 09/M03 A3015 RMK A01 T00911032  RH  042%=      5-min Rain = 0
KPG1 011257Z 05009KT 09/M03 A3015 RMK A01 T00901033  RH  042%=      5-min Rain = 0
KPG1 011258Z 06009KT 09/M03 A3015 RMK A01 T00901033  RH  042%=      5-min Rain = 0
KPG1 011259Z 05010KT 09/M03 A3015 RMK A01 T00911034  RH  041%=      5-min Rain = 0
KPG1 011300Z 05009KT 09/M03 A3015 RMK A01 T00911034  RH  041%=      5-min Rain = 0
KPG1 011301Z 05009KT 09/M03 A3015 RMK A01 T00911034  RH  041%=      5-min Rain = 0
KPG1 011302Z 05008KT 09/M04 A3015 RMK A01 T00911035  RH  041%=      5-min Rain = 0
KPG1 011303Z 04010KT 09/M03 A3015 RMK A01 T00911034  RH  041%=      5-min Rain = 0
KPG1 011304Z 03010KT 09/M03 A3015 RMK A01 T00911034  RH  041%=      5-min Rain = 0
KPG1 011305Z 03009KT 09/M03 A3015 RMK A01 T00911034  RH  041%=      5-min Rain = 0
KPG1 011306Z 03009KT 09/M03 A3015 RMK A01 T00911034  RH  041%=      5-min Rain = 0
KPG1 011307Z 04008KT 09/M03 A3015 RMK A01 T00911034  RH  041%=      5-min Rain = 0
KPG1 011308Z 04008KT 09/M03 A3016 RMK A01 T00911034  RH  041%=      5-min Rain = 0
KPG1 011309Z 04008G13KT 09/M03 A3016 RMK A01 T00911034  RH  041%=      5-min Rain = 0
KPG1 011310Z 04010KT 09/M03 A3016 RMK A01 T00901034  RH  041%=      5-min Rain = 0
KPG1 011311Z 06008KT 09/M03 A3016 RMK A01 T00901034  RH  041%=      5-min Rain = 0
KPG1 011312Z 06010KT 09/M03 A3016 RMK A01 T00901034  RH  042%=      5-min Rain = 0
KPG1 011313Z 06010KT 09/M03 A3016 RMK A01 T00901034  RH  042%=      5-min Rain = 0
KPG1 011314Z 06014KT 09/M03 A3016 RMK A01 T00901033  RH  042%=      5-min Rain = 0
KPG1 011315Z 06012KT 09/M03 A3016 RMK A01 T00901031  RH  042%=      5-min Rain = 0
KPG1 011316Z 06013KT 09/M03 A3016 RMK A01 T00891031  RH  043%=      5-min Rain = 0
KPG1 011317Z 06012KT 09/M03 A3016 RMK A01 T00891030  RH  043%=      5-min Rain = 0
KPG1 011318Z 06011KT 09/M03 A3016 RMK A01 T00891029  RH  043%=      5-min Rain = 0
KPG1 011319Z 06011KT 09/M03 A3016 RMK A01 T00891029  RH  043%=      5-min Rain = 0
KPG1 011320Z 06011KT 09/M03 A3016 RMK A01 T00881029  RH  044%=      5-min Rain = 0
KPG1 011321Z 07009KT 09/M03 A3016 RMK A01 T00891028  RH  044%=      5-min Rain = 0
KPG1 011322Z 07009KT 09/M03 A3017 RMK A01 T00881028  RH  044%=      5-min Rain = 0
KPG1 011323Z 07007KT 09/M03 A3017 RMK A01 T00881027  RH  044%=      5-min Rain = 0
KPG1 011324Z 06008G14KT 09/M03 A3017 RMK A01 T00881027  RH  044%=      5-min Rain = 0
KPG1 011325Z 07011KT 09/M03 A3017 RMK A01 T00871027  RH  044%=      5-min Rain = 0
KPG1 011326Z 07009KT 09/M03 A3017 RMK A01 T00871026  RH  045%=      5-min Rain = 0
KPG1 011327Z 06008KT 09/M03 A3017 RMK A01 T00871026  RH  045%=      5-min Rain = 0
KPG1 011328Z 06007KT 09/M03 A3017 RMK A01 T00871026  RH  045%=      5-min Rain = 0
KPG1 011329Z 05008KT 09/M03 A3017 RMK A01 T00871025  RH  045%=      5-min Rain = 0
KPG1 011330Z 06008KT 09/M03 A3017 RMK A01 T00871025  RH  045%=      5-min Rain = 0
KPG1 011331Z 06009KT 09/M03 A3017 RMK A01 T00871025  RH  045%=      5-min Rain = 0
KPG1 011332Z 06010KT 09/M03 A3017 RMK A01 T00871025  RH  045%=      5-min Rain = 0
KPG1 011333Z 06011KT 09/M03 A3018 RMK A01 T00871025  RH  045%=      5-min Rain = 0
KPG1 011334Z 06010KT 09/M03 A3018 RMK A01 T00871025  RH  045%=      5-min Rain = 0
KPG1 011335Z 06009KT 09/M03 A3018 RMK A01 T00881025  RH  045%=      5-min Rain = 0
KPG1 011336Z 07009KT 09/M03 A3018 RMK A01 T00881025  RH  045%=      5-min Rain = 0
KPG1 011337Z 06007KT 09/M03 A3018 RMK A01 T00871025  RH  045%=      5-min Rain = 0
KPG1 011338Z 06007KT 09/M02 A3018 RMK A01 T00881024  RH  045%=      5-min Rain = 0
KPG1 011339Z 06008KT 09/M02 A3018 RMK A01 T00881024  RH  045%=      5-min Rain = 0
KPG1 011340Z 06008KT 09/M02 A3018 RMK A01 T00881024  RH  046%=      5-min Rain = 0
KPG1 011341Z 08010KT 09/M02 A3018 RMK A01 T00881023  RH  046%=      5-min Rain = 0
KPG1 011342Z 06010KT 09/M02 A3018 RMK A01 T00881022  RH  046%=      5-min Rain = 0
KPG1 011343Z 05012KT 09/M02 A3018 RMK A01 T00871022  RH  046%=      5-min Rain = 0
KPG1 011344Z 06011KT 09/M02 A3018 RMK A01 T00881022  RH  046%=      5-min Rain = 0
KPG1 011345Z 06010KT 09/M02 A3018 RMK A01 T00881021  RH  046%=      5-min Rain = 0
KPG1 011346Z 06010KT 09/M02 A3019 RMK A01 T00881020  RH  047%=      5-min Rain = 0
KPG1 011347Z 06010KT 09/M02 A3019 RMK A01 T00881020  RH  047%=      5-min Rain = 0
KPG1 011348Z 06009KT 09/M02 A3019 RMK A01 T00881019  RH  047%=      5-min Rain = 0
KPG1 011349Z 06010KT 09/M02 A3019 RMK A01 T00871019  RH  047%=      5-min Rain = 0
KPG1 011350Z 06010KT 09/M02 A3019 RMK A01 T00871019  RH  047%=      5-min Rain = 0
KPG1 011351Z 07009KT 09/M02 A3019 RMK A01 T00871019  RH  047%=      5-min Rain = 0
KPG1 011352Z 06010KT 09/M02 A3019 RMK A01 T00871019  RH  048%=      5-min Rain = 0
KPG1 011353Z 06010KT 09/M02 A3019 RMK A01 T00871018  RH  048%=      5-min Rain = 0
KPG1 011354Z 06014KT 09/M02 A302 RMK A01 T00871018  RH  048%=      5-min Rain = 0
KPG1 011355Z 06011KT 09/M02 A302 RMK A01 T00871018  RH  048%=      5-min Rain = 0
KPG1 011356Z 06011KT 09/M02 A302 RMK A01 T00871018  RH  048%=      5-min Rain = 0
KPG1 011357Z 06012KT 09/M02 A302 RMK A01 T00871018  RH  048%=      5-min Rain = 0
KPG1 011358Z 06013KT 09/M02 A302 RMK A01 T00871018  RH  048%=      5-min Rain = 0
KPG1 011359Z 06012KT 09/M02 A302 RMK A01 T00871018  RH  048%=      5-min Rain = 0
KPG1 011400Z 07012KT 09/M02 A302 RMK A01 T00871017  RH  048%=      5-min Rain = 0
KPG1 011401Z 06014KT 09/M02 A302 RMK A01 T00871017  RH  048%=      5-min Rain = 0
KPG1 011402Z 07013KT 09/M02 A302 RMK A01 T00871017  RH  048%=      5-min Rain = 0
KPG1 011403Z 07011KT 09/M02 A302 RMK A01 T00861017  RH  048%=      5-min Rain = 0
KPG1 011404Z 06014KT 09/M02 A302 RMK A01 T00871017  RH  048%=      5-min Rain = 0
KPG1 011405Z 06014KT 09/M02 A302 RMK A01 T00871017  RH  048%=      5-min Rain = 0
KPG1 011406Z 07011G16KT 09/M02 A302 RMK A01 T00871016  RH  048%=      5-min Rain = 0
KPG1 011407Z 07011KT 09/M02 A3021 RMK A01 T00871016  RH  048%=      5-min Rain = 0
KPG1 011408Z 07013KT 09/M02 A3021 RMK A01 T00871016  RH  048%=      5-min Rain = 0
KPG1 011409Z 07013KT 09/M02 A3021 RMK A01 T00871016  RH  049%=      5-min Rain = 0
KPG1 011410Z 07014KT 09/M02 A3021 RMK A01 T00871016  RH  049%=      5-min Rain = 0
KPG1 011411Z 07013KT 09/M02 A3021 RMK A01 T00861016  RH  049%=      5-min Rain = 0
KPG1 011412Z 07015KT 09/M02 A3021 RMK A01 T00861016  RH  049%=      5-min Rain = 0
KPG1 011413Z 07013KT 09/M02 A3021 RMK A01 T00861016  RH  049%=      5-min Rain = 0
KPG1 011414Z 06013KT 09/M02 A3021 RMK A01 T00861015  RH  049%=      5-min Rain = 0
KPG1 011415Z 06012KT 09/M02 A3021 RMK A01 T00861015  RH  049%=      5-min Rain = 0
KPG1 011416Z 06012KT 09/M02 A3021 RMK A01 T00861015  RH  049%=      5-min Rain = 0
KPG1 011417Z 07012KT 09/M02 A3021 RMK A01 T00861015  RH  049%=      5-min Rain = 0
KPG1 011418Z 06011KT 09/M02 A3021 RMK A01 T00871015  RH  049%=      5-min Rain = 0
KPG1 011419Z 07011KT 09/M02 A3021 RMK A01 T00881015  RH  049%=      5-min Rain = 0
KPG1 011420Z 07013KT 09/M02 A3021 RMK A01 T00881015  RH  048%=      5-min Rain = 0
KPG1 011421Z 06014KT 09/M02 A3022 RMK A01 T00891015  RH  048%=      5-min Rain = 0
KPG1 011422Z 06013KT 09/M02 A3022 RMK A01 T00891015  RH  048%=      5-min Rain = 0
KPG1 011423Z 07012KT 09/M02 A3022 RMK A01 T00891015  RH  048%=      5-min Rain = 0
KPG1 011424Z 06011KT 09/M02 A3022 RMK A01 T00891015  RH  048%=      5-min Rain = 0
KPG1 011425Z 06009KT 09/M01 A3022 RMK A01 T00891014  RH  048%=      5-min Rain = 0
KPG1 011426Z 07013KT 09/M01 A3022 RMK A01 T00901014  RH  048%=      5-min Rain = 0
KPG1 011427Z 07013KT 09/M01 A3022 RMK A01 T00901014  RH  048%=      5-min Rain = 0
KPG1 011428Z 06013KT 09/M01 A3022 RMK A01 T00901014  RH  048%=      5-min Rain = 0
KPG1 011429Z 05013KT 09/M02 A3022 RMK A01 T00901015  RH  048%=      5-min Rain = 0
KPG1 011430Z 06012KT 09/M02 A3022 RMK A01 T00901015  RH  048%=      5-min Rain = 0
KPG1 011431Z 06012KT 09/M02 A3022 RMK A01 T00911015  RH  047%=      5-min Rain = 0
KPG1 011432Z 07012KT 09/M02 A3022 RMK A01 T00911015  RH  047%=      5-min Rain = 0
KPG1 011433Z 07011KT 09/M02 A3022 RMK A01 T00911015  RH  047%=      5-min Rain = 0
KPG1 011434Z 06012KT 09/M02 A3022 RMK A01 T00921016  RH  047%=      5-min Rain = 0
KPG1 011435Z 07016KT 09/M02 A3022 RMK A01 T00921016  RH  047%=      5-min Rain = 0
KPG1 011436Z 07016KT 09/M02 A3022 RMK A01 T00911017  RH  047%=      5-min Rain = 0
KPG1 011437Z 07014KT 09/M02 A3022 RMK A01 T00901017  RH  047%=      5-min Rain = 0
KPG1 011438Z 06015KT 09/M02 A3022 RMK A01 T00901017  RH  047%=      5-min Rain = 0
KPG1 011439Z 06015KT 09/M02 A3022 RMK A01 T00911017  RH  047%=      5-min Rain = 0
KPG1 011440Z 07014KT 09/M02 A3022 RMK A01 T00921017  RH  047%=      5-min Rain = 0
KPG1 011441Z 06014KT 09/M02 A3023 RMK A01 T00921017  RH  046%=      5-min Rain = 0
KPG1 011442Z 06014KT 09/M02 A3023 RMK A01 T00921017  RH  046%=      5-min Rain = 0
KPG1 011443Z 07014KT 09/M02 A3023 RMK A01 T00931017  RH  046%=      5-min Rain = 0
KPG1 011444Z 07013KT 09/M02 A3023 RMK A01 T00931017  RH  046%=      5-min Rain = 0
KPG1 011445Z 06013KT 09/M02 A3023 RMK A01 T00931017  RH  046%=      5-min Rain = 0
KPG1 011446Z 06011KT 09/M02 A3023 RMK A01 T00931018  RH  046%=      5-min Rain = 0
KPG1 011447Z 06013KT 09/M02 A3023 RMK A01 T00941017  RH  046%=      5-min Rain = 0
KPG1 011448Z 07014KT 09/M02 A3023 RMK A01 T00941017  RH  046%=      5-min Rain = 0
KPG1 011449Z 06015KT 10/M02 A3023 RMK A01 T00951017  RH  046%=      5-min Rain = 0
KPG1 011450Z 07015KT 09/M02 A3024 RMK A01 T00941018  RH  045%=      5-min Rain = 0
KPG1 011451Z 07015KT 09/M02 A3024 RMK A01 T00941019  RH  045%=      5-min Rain = 0
KPG1 011452Z 07014KT 09/M02 A3024 RMK A01 T00931018  RH  046%=      5-min Rain = 0
KPG1 011453Z 06013KT 09/M02 A3024 RMK A01 T00941017  RH  046%=      5-min Rain = 0
KPG1 011454Z 06015KT 10/M02 A3024 RMK A01 T00951018  RH  045%=      5-min Rain = 0
KPG1 011455Z 06014KT 10/M02 A3024 RMK A01 T00961019  RH  045%=      5-min Rain = 0
KPG1 011456Z 06014KT 10/M02 A3024 RMK A01 T00951019  RH  045%=      5-min Rain = 0
KPG1 011457Z 07013KT 10/M02 A3024 RMK A01 T00961018  RH  045%=      5-min Rain = 0
KPG1 011458Z 08014KT 10/M02 A3024 RMK A01 T00971019  RH  044%=      5-min Rain = 0
KPG1 011459Z 08013KT 10/M02 A3024 RMK A01 T00971019  RH  044%=      5-min Rain = 0
KPG1 011500Z 08013KT 10/M02 A3024 RMK A01 T00971019  RH  044%=      5-min Rain = 0
KPG1 011501Z 07014KT 10/M02 A3024 RMK A01 T00971020  RH  044%=      5-min Rain = 0
KPG1 011502Z 06013KT 10/M02 A3024 RMK A01 T00971020  RH  044%=      5-min Rain = 0
KPG1 011503Z 05012KT 10/M02 A3024 RMK A01 T00971020  RH  044%=      5-min Rain = 0
KPG1 011504Z 06013KT 10/M02 A3024 RMK A01 T00981020  RH  044%=      5-min Rain = 0
KPG1 011505Z 06014KT 10/M02 A3024 RMK A01 T00991021  RH  043%=      5-min Rain = 0
KPG1 011506Z 07012KT 10/M02 A3024 RMK A01 T00981022  RH  043%=      5-min Rain = 0
KPG1 011507Z 06012KT 10/M02 A3024 RMK A01 T00981022  RH  043%=      5-min Rain = 0
KPG1 011508Z 06010KT 10/M02 A3025 RMK A01 T00991022  RH  043%=      5-min Rain = 0
KPG1 011509Z 03009G14KT 10/M02 A3025 RMK A01 T01001021  RH  043%=      5-min Rain = 0
KPG1 011510Z 03011KT 10/M02 A3025 RMK A01 T01021020  RH  042%=      5-min Rain = 0
KPG1 011511Z 03011KT 10/M02 A3025 RMK A01 T01021021  RH  042%=      5-min Rain = 0
KPG1 011512Z 03012KT 10/M02 A3025 RMK A01 T01011022  RH  042%=      5-min Rain = 0
KPG1 011513Z 03014KT 10/M02 A3025 RMK A01 T01011023  RH  042%=      5-min Rain = 0
KPG1 011514Z 03011KT 10/M02 A3025 RMK A01 T01011024  RH  041%=      5-min Rain = 0
KPG1 011515Z 03012KT 10/M02 A3025 RMK A01 T01011024  RH  041%=      5-min Rain = 0
KPG1 011516Z 03012KT 10/M03 A3025 RMK A01 T01011025  RH  041%=      5-min Rain = 0
KPG1 011517Z 04010KT 10/M02 A3025 RMK A01 T01011024  RH  042%=      5-min Rain = 0
KPG1 011518Z 04011KT 10/M02 A3026 RMK A01 T01021024  RH  041%=      5-min Rain = 0
KPG1 011519Z 05011KT 10/M03 A3026 RMK A01 T01011027  RH  041%=      5-min Rain = 0
KPG1 011520Z 04010KT 10/M03 A3026 RMK A01 T01001028  RH  040%=      5-min Rain = 0
KPG1 011521Z 02013KT 10/M03 A3026 RMK A01 T01001026  RH  041%=      5-min Rain = 0
KPG1 011522Z 03013KT 10/M03 A3026 RMK A01 T01011027  RH  041%=      5-min Rain = 0
KPG1 011523Z 03014KT 10/M03 A3026 RMK A01 T01021027  RH  040%=      5-min Rain = 0
KPG1 011524Z 05013KT 10/M03 A3026 RMK A01 T01021030  RH  040%=      5-min Rain = 0
KPG1 011525Z 04011KT 10/M03 A3026 RMK A01 T01021034  RH  038%=      5-min Rain = 0
KPG1 011526Z 04016KT 10/M03 A3026 RMK A01 T01031029  RH  039%=      5-min Rain = 0
KPG1 011527Z 03015KT 10/M04 A3026 RMK A01 T01041038  RH  037%=      5-min Rain = 0
KPG1 011528Z 04015KT 10/M04 A3026 RMK A01 T01031042  RH  036%=      5-min Rain = 0
KPG1 011529Z 03011KT 10/M04 A3026 RMK A01 T01041040  RH  036%=      5-min Rain = 0
KPG1 011530Z 03010KT 11/M04 A3026 RMK A01 T01071038  RH  036%=      5-min Rain = 0
KPG1 011531Z 03010KT 11/M04 A3026 RMK A01 T01091040  RH  035%=      5-min Rain = 0
KPG1 011532Z 03009G14KT 11/M04 A3026 RMK A01 T01081043  RH  034%=      5-min Rain = 0
KPG1 011533Z 03010KT 11/M04 A3026 RMK A01 T01081044  RH  034%=      5-min Rain = 0
KPG1 011534Z 01010KT 11/M04 A3026 RMK A01 T01081044  RH  034%=      5-min Rain = 0
KPG1 011535Z 00009G14KT 11/M04 A3026 RMK A01 T01091044  RH  034%=      5-min Rain = 0
KPG1 011536Z 01011KT 11/M05 A3026 RMK A01 T01091046  RH  033%=      5-min Rain = 0
KPG1 011537Z 03012KT 11/M05 A3026 RMK A01 T01071047  RH  034%=      5-min Rain = 0
KPG1 011538Z 01010KT 11/M05 A3026 RMK A01 T01061046  RH  034%=      5-min Rain = 0
KPG1 011539Z 36009KT 11/M05 A3026 RMK A01 T01061046  RH  034%=      5-min Rain = 0
KPG1 011540Z 35010KT 11/M05 A3026 RMK A01 T01061046  RH  034%=      5-min Rain = 0
KPG1 011541Z 35011KT 11/M05 A3026 RMK A01 T01071045  RH  034%=      5-min Rain = 0
KPG1 011542Z 35011KT 11/M05 A3026 RMK A01 T01081045  RH  034%=      5-min Rain = 0
KPG1 011543Z 35009KT 11/M05 A3026 RMK A01 T01091045  RH  034%=      5-min Rain = 0
KPG1 011544Z 35012KT 11/M05 A3026 RMK A01 T01091046  RH  033%=      5-min Rain = 0
KPG1 011545Z 36011KT 11/M05 A3026 RMK A01 T01081046  RH  034%=      5-min Rain = 0
KPG1 011546Z 00013KT 11/M05 A3026 RMK A01 T01091046  RH  034%=      5-min Rain = 0
KPG1 011547Z 02008KT 11/M05 A3026 RMK A01 T01101045  RH  034%=      5-min Rain = 0
KPG1 011548Z 03011KT 11/M04 A3026 RMK A01 T01141039  RH  034%=      5-min Rain = 0
KPG1 011549Z 02009G14KT 11/M04 A3026 RMK A01 T01141039  RH  034%=      5-min Rain = 0
KPG1 011550Z 03009KT 12/M04 A3026 RMK A01 T01151041  RH  033%=      5-min Rain = 0
KPG1 011551Z 04011G16KT 11/M04 A3026 RMK A01 T01141044  RH  033%=      5-min Rain = 0
KPG1 011552Z 04011KT 11/M04 A3026 RMK A01 T01141043  RH  033%=      5-min Rain = 0
KPG1 011553Z 01010KT 11/M04 A3026 RMK A01 T01131044  RH  033%=      5-min Rain = 0
KPG1 011554Z 36011KT 11/M05 A3026 RMK A01 T01141045  RH  033%=      5-min Rain = 0
KPG1 011555Z 01010KT 11/M05 A3026 RMK A01 T01101047  RH  033%=      5-min Rain = 0
KPG1 011556Z 03011KT 11/M04 A3026 RMK A01 T01111044  RH  033%=      5-min Rain = 0
KPG1 011557Z 02008KT 12/M04 A3027 RMK A01 T01161041  RH  033%=      5-min Rain = 0
KPG1 011558Z 03010KT 12/M04 A3027 RMK A01 T01171042  RH  033%=      5-min Rain = 0
KPG1 011559Z 03013G18KT 12/M04 A3027 RMK A01 T01181043  RH  032%=      5-min Rain = 0
KPG1 011600Z 02010KT 12/M05 A3027 RMK A01 T01151045  RH  032%=      5-min Rain = 0
KPG1 011601Z 04008KT 12/M04 A3027 RMK A01 T01151044  RH  032%=      5-min Rain = 0
KPG1 011602Z 03011KT 12/M04 A3027 RMK A01 T01161043  RH  032%=      5-min Rain = 0
KPG1 011603Z 03011KT 12/M05 A3027 RMK A01 T01161045  RH  032%=      5-min Rain = 0
KPG1 011604Z 05010KT 11/M05 A3027 RMK A01 T01141046  RH  032%=      5-min Rain = 0
KPG1 011605Z 05007KT 11/M05 A3027 RMK A01 T01111048  RH  033%=      5-min Rain = 0
KPG1 011606Z 04009KT 11/M05 A3027 RMK A01 T01111045  RH  033%=      5-min Rain = 0
KPG1 011607Z 03013KT 11/M04 A3027 RMK A01 T01141043  RH  033%=      5-min Rain = 0
KPG1 011608Z 04012KT 11/M05 A3027 RMK A01 T01141045  RH  033%=      5-min Rain = 0
KPG1 011609Z 04009KT 11/M05 A3027 RMK A01 T01121045  RH  033%=      5-min Rain = 0
KPG1 011610Z 03010KT 11/M04 A3027 RMK A01 T01141042  RH  033%=      5-min Rain = 0
KPG1 011611Z 03015KT 12/M04 A3027 RMK A01 T01161043  RH  033%=      5-min Rain = 0
KPG1 011612Z 05011KT 11/M05 A3027 RMK A01 T01131046  RH  033%=      5-min Rain = 0
KPG1 011613Z 06010KT 11/M05 A3027 RMK A01 T01131045  RH  033%=      5-min Rain = 0
KPG1 011614Z 06012KT 11/M04 A3027 RMK A01 T01131044  RH  033%=      5-min Rain = 0
KPG1 011615Z 06009KT 11/M04 A3027 RMK A01 T01131044  RH  033%=      5-min Rain = 0
KPG1 011616Z 06008KT 11/M04 A3027 RMK A01 T01131043  RH  033%=      5-min Rain = 0
KPG1 011617Z 07010KT 11/M04 A3027 RMK A01 T01141043  RH  033%=      5-min Rain = 0
KPG1 011618Z 07013KT 12/M04 A3027 RMK A01 T01161043  RH  033%=      5-min Rain = 0
KPG1 011619Z 07011KT 12/M04 A3027 RMK A01 T01151044  RH  033%=      5-min Rain = 0
KPG1 011620Z 07011KT 11/M04 A3027 RMK A01 T01141044  RH  033%=      5-min Rain = 0
KPG1 011621Z 07013KT 11/M05 A3027 RMK A01 T01141045  RH  033%=      5-min Rain = 0
KPG1 011622Z 07013KT 11/M05 A3027 RMK A01 T01131045  RH  033%=      5-min Rain = 0
KPG1 011623Z 07013KT 11/M05 A3027 RMK A01 T01121045  RH  033%=      5-min Rain = 0
KPG1 011624Z 07014KT 11/M04 A3027 RMK A01 T01121044  RH  033%=      5-min Rain = 0
KPG1 011625Z 07013KT 11/M04 A3027 RMK A01 T01131042  RH  034%=      5-min Rain = 0
KPG1 011626Z 04012KT 11/M04 A3027 RMK A01 T01141041  RH  033%=      5-min Rain = 0
KPG1 011627Z 06013KT 12/M04 A3028 RMK A01 T01151042  RH  033%=      5-min Rain = 0
KPG1 011628Z 04009KT 11/M04 A3027 RMK A01 T01131044  RH  033%=      5-min Rain = 0
KPG1 011629Z 03010KT 11/M04 A3027 RMK A01 T01121043  RH  034%=      5-min Rain = 0
KPG1 011630Z 03012KT 11/M04 A3027 RMK A01 T01121043  RH  034%=      5-min Rain = 0
KPG1 011631Z 03009KT 11/M04 A3027 RMK A01 T01121043  RH  033%=      5-min Rain = 0
KPG1 011632Z 04012KT 11/M04 A3027 RMK A01 T01121042  RH  034%=      5-min Rain = 0
KPG1 011633Z 03011KT 11/M04 A3027 RMK A01 T01121044  RH  033%=      5-min Rain = 0
KPG1 011634Z 04011KT 11/M04 A3027 RMK A01 T01121042  RH  034%=      5-min Rain = 0
KPG1 011635Z 04010KT 12/M04 A3027 RMK A01 T01151041  RH  033%=      5-min Rain = 0
KPG1 011636Z 08011KT 12/M04 A3027 RMK A01 T01171040  RH  033%=      5-min Rain = 0
KPG1 011637Z 08009KT 12/M04 A3027 RMK A01 T01171041  RH  033%=      5-min Rain = 0
KPG1 011638Z 07009KT 12/M04 A3028 RMK A01 T01171041  RH  033%=      5-min Rain = 0
KPG1 011639Z 07010KT 12/M04 A3028 RMK A01 T01171041  RH  033%=      5-min Rain = 0
KPG1 011640Z 06012KT 12/M04 A3027 RMK A01 T01181039  RH  033%=      5-min Rain = 0
KPG1 011641Z 04011KT 12/M04 A3027 RMK A01 T01211039  RH  032%=      5-min Rain = 0
KPG1 011642Z 03011KT 12/M04 A3027 RMK A01 T01201041  RH  032%=      5-min Rain = 0
KPG1 011643Z 03009KT 12/M04 A3027 RMK A01 T01171043  RH  032%=      5-min Rain = 0
KPG1 011644Z 03008G14KT 12/M04 A3028 RMK A01 T01161042  RH  033%=      5-min Rain = 0
KPG1 011645Z 01013KT 12/M04 A3028 RMK A01 T01191039  RH  033%=      5-min Rain = 0
KPG1 011646Z 01010KT 12/M04 A3028 RMK A01 T01201040  RH  032%=      5-min Rain = 0
KPG1 011647Z 03011KT 12/M04 A3028 RMK A01 T01211040  RH  032%=      5-min Rain = 0
KPG1 011648Z 05010KT 12/M04 A3028 RMK A01 T01241037  RH  032%=      5-min Rain = 0
KPG1 011649Z 04015KT 13/M04 A3028 RMK A01 T01271038  RH  031%=      5-min Rain = 0
KPG1 011650Z 04012KT 12/M04 A3028 RMK A01 T01211044  RH  031%=      5-min Rain = 0
KPG1 011651Z 04011KT 12/M04 A3028 RMK A01 T01191041  RH  032%=      5-min Rain = 0
KPG1 011652Z 04011KT 12/M04 A3028 RMK A01 T01191041  RH  032%=      5-min Rain = 0
KPG1 011653Z 03011KT 12/M04 A3028 RMK A01 T01191040  RH  033%=      5-min Rain = 0
KPG1 011654Z 02011KT 12/M04 A3028 RMK A01 T01211039  RH  032%=      5-min Rain = 0
KPG1 011655Z 01010KT 12/M04 A3028 RMK A01 T01241038  RH  032%=      5-min Rain = 0
KPG1 011656Z 02012KT 13/M04 A3028 RMK A01 T01251039  RH  032%=      5-min Rain = 0
KPG1 011657Z 02009KT 12/M04 A3028 RMK A01 T01231040  RH  032%=      5-min Rain = 0
KPG1 011658Z 03010KT 12/M04 A3028 RMK A01 T01201041  RH  032%=      5-min Rain = 0
KPG1 011659Z 04014KT 12/M04 A3028 RMK A01 T01201040  RH  032%=      5-min Rain = 0
KPG1 011700Z 03012KT 12/M04 A3028 RMK A01 T01221039  RH  032%=      5-min Rain = 0
KPG1 011701Z 02009KT 12/M04 A3028 RMK A01 T01231039  RH  032%=      5-min Rain = 0
KPG1 011702Z 01009KT 12/M04 A3028 RMK A01 T01241040  RH  032%=      5-min Rain = 0
KPG1 011703Z 03010KT 12/M04 A3028 RMK A01 T01221040  RH  032%=      5-min Rain = 0
KPG1 011704Z 01009KT 13/M04 A3028 RMK A01 T01251037  RH  032%=      5-min Rain = 0
KPG1 011705Z 02006KT 13/M04 A3028 RMK A01 T01271038  RH  031%=      5-min Rain = 0
KPG1 011706Z 02011KT 13/M04 A3028 RMK A01 T01281036  RH  032%=      5-min Rain = 0
KPG1 011707Z 36011KT 13/M04 A3028 RMK A01 T01271039  RH  031%=      5-min Rain = 0
KPG1 011708Z 01010KT 12/M04 A3028 RMK A01 T01241041  RH  031%=      5-min Rain = 0
KPG1 011709Z 02010KT 12/M04 A3028 RMK A01 T01241039  RH  032%=      5-min Rain = 0
KPG1 011710Z 03012KT 13/M04 A3028 RMK A01 T01261038  RH  032%=      5-min Rain = 0
KPG1 011711Z 02012KT 13/M04 A3028 RMK A01 T01271038  RH  031%=      5-min Rain = 0
KPG1 011712Z 01009KT 13/M04 A3028 RMK A01 T01281037  RH  031%=      5-min Rain = 0
KPG1 011713Z 03008KT 13/M04 A3028 RMK A01 T01311035  RH  031%=      5-min Rain = 0
KPG1 011714Z 02008G13KT 13/M03 A3028 RMK A01 T01341034  RH  031%=      5-min Rain = 0
KPG1 011715Z 03008KT 13/M04 A3028 RMK A01 T01341037  RH  030%=      5-min Rain = 0
KPG1 011716Z 04006KT 13/M04 A3028 RMK A01 T01281041  RH  030%=      5-min Rain = 0
KPG1 011717Z 01007KT 13/M04 A3028 RMK A01 T01251041  RH  031%=      5-min Rain = 0
KPG1 011718Z 01008G13KT 13/M04 A3028 RMK A01 T01261039  RH  032%=      5-min Rain = 0
KPG1 011719Z 03011G16KT 13/M04 A3028 RMK A01 T01271036  RH  032%=      5-min Rain = 0
KPG1 011720Z 04009KT 13/M03 A3028 RMK A01 T01291034  RH  032%=      5-min Rain = 0
KPG1 011721Z 04008KT 13/M04 A3028 RMK A01 T01281035  RH  032%=      5-min Rain = 0
KPG1 011722Z 03012KT 13/M04 A3028 RMK A01 T01261036  RH  032%=      5-min Rain = 0
KPG1 011723Z 02011KT 13/M04 A3028 RMK A01 T01251035  RH  033%=      5-min Rain = 0
KPG1 011724Z 05009KT 13/M03 A3028 RMK A01 T01261034  RH  033%=      5-min Rain = 0
KPG1 011725Z 04010KT 13/M03 A3028 RMK A01 T01281033  RH  032%=      5-min Rain = 0
KPG1 011726Z 03013KT 13/M03 A3028 RMK A01 T01271033  RH  032%=      5-min Rain = 0
KPG1 011727Z 04012KT 13/M03 A3028 RMK A01 T01261034  RH  033%=      5-min Rain = 0
KPG1 011728Z 04008KT 12/M03 A3028 RMK A01 T01241034  RH  033%=      5-min Rain = 0
KPG1 011729Z 07008KT 13/M03 A3028 RMK A01 T01261033  RH  033%=      5-min Rain = 0
KPG1 011730Z 08012KT 13/M03 A3028 RMK A01 T01271033  RH  033%=      5-min Rain = 0
KPG1 011731Z 04010KT 13/M03 A3029 RMK A01 T01271031  RH  033%=      5-min Rain = 0
KPG1 011732Z 06010KT 13/M03 A3029 RMK A01 T01311030  RH  033%=      5-min Rain = 0
KPG1 011733Z 06011G16KT 13/M03 A3028 RMK A01 T01291031  RH  033%=      5-min Rain = 0
KPG1 011734Z 06012KT 13/M03 A3028 RMK A01 T01281032  RH  033%=      5-min Rain = 0
KPG1 011735Z 07015KT 13/M03 A3028 RMK A01 T01261032  RH  033%=      5-min Rain = 0
KPG1 011736Z 07016KT 13/M03 A3028 RMK A01 T01261032  RH  033%=      5-min Rain = 0
KPG1 011737Z 06010KT 13/M03 A3028 RMK A01 T01271031  RH  033%=      5-min Rain = 0
KPG1 011738Z 07016G21KT 13/M03 A3028 RMK A01 T01291031  RH  033%=      5-min Rain = 0
KPG1 011739Z 06014G19KT 13/M03 A3028 RMK A01 T01261034  RH  033%=      5-min Rain = 0
KPG1 011740Z 06009KT 12/M03 A3028 RMK A01 T01231033  RH  033%=      5-min Rain = 0
KPG1 011741Z 06014KT 13/M03 A3028 RMK A01 T01251031  RH  034%=      5-min Rain = 0
KPG1 011742Z 07014G19KT 12/M03 A3028 RMK A01 T01241031  RH  034%=      5-min Rain = 0
KPG1 011743Z 05013KT 12/M03 A3028 RMK A01 T01241030  RH  034%=      5-min Rain = 0
KPG1 011744Z 04015KT 13/M03 A3028 RMK A01 T01251030  RH  034%=      5-min Rain = 0
KPG1 011745Z 04016KT 13/M03 A3028 RMK A01 T01271029  RH  034%=      5-min Rain = 0
KPG1 011746Z 05012KT 13/M03 A3028 RMK A01 T01271029  RH  034%=      5-min Rain = 0
KPG1 011747Z 05012KT 13/M03 A3028 RMK A01 T01271029  RH  034%=      5-min Rain = 0
KPG1 011748Z 07011KT 12/M03 A3028 RMK A01 T01231031  RH  034%=      5-min Rain = 0
KPG1 011749Z 06012KT 13/M03 A3028 RMK A01 T01261027  RH  034%=      5-min Rain = 0
KPG1 011750Z 06008KT 12/M03 A3028 RMK A01 T01241031  RH  034%=      5-min Rain = 0
KPG1 011751Z 06010G19KT 12/M03 A3028 RMK A01 T01221030  RH  035%=      5-min Rain = 0
KPG1 011752Z 06013G18KT 13/M03 A3028 RMK A01 T01261027  RH  034%=      5-min Rain = 0
KPG1 011753Z 06011KT 13/M03 A3028 RMK A01 T01281028  RH  034%=      5-min Rain = 0
KPG1 011754Z 05011KT 13/M03 A3028 RMK A01 T01301029  RH  033%=      5-min Rain = 0
KPG1 011755Z 03014KT 13/M03 A3028 RMK A01 T01271030  RH  033%=      5-min Rain = 0
KPG1 011756Z 07010KT 13/M03 A3028 RMK A01 T01301027  RH  034%=      5-min Rain = 0
KPG1 011757Z 07011KT 13/M03 A3028 RMK A01 T01311028  RH  033%=      5-min Rain = 0
KPG1 011758Z 03013KT 13/M03 A3028 RMK A01 T01331026  RH  033%=      5-min Rain = 0
KPG1 011759Z 04013KT 13/M03 A3028 RMK A01 T01331029  RH  032%=      5-min Rain = 0
KPG1 011800Z 03008KT 13/M03 A3028 RMK A01 T01281033  RH  032%=      5-min Rain = 0
KPG1 011801Z 02010KT 13/M03 A3028 RMK A01 T01251032  RH  033%=      5-min Rain = 0
KPG1 011802Z 04007G12KT 13/M03 A3028 RMK A01 T01251030  RH  034%=      5-min Rain = 0
KPG1 011803Z 08011KT 13/M03 A3028 RMK A01 T01271029  RH  034%=      5-min Rain = 0
KPG1 011804Z 06012KT 13/M03 A3028 RMK A01 T01271030  RH  034%=      5-min Rain = 0
KPG1 011805Z 06009G14KT 13/M03 A3028 RMK A01 T01291027  RH  034%=      5-min Rain = 0
KPG1 011806Z 06011KT 13/M03 A3028 RMK A01 T01311028  RH  033%=      5-min Rain = 0
KPG1 011807Z 05009G14KT 13/M03 A3028 RMK A01 T01301027  RH  033%=      5-min Rain = 0
KPG1 011808Z 03010G15KT 13/M03 A3028 RMK A01 T01311027  RH  033%=      5-min Rain = 0
KPG1 011809Z 04013KT 14/M03 A3028 RMK A01 T01351025  RH  033%=      5-min Rain = 0
KPG1 011810Z 05011KT 13/M03 A3028 RMK A01 T01341027  RH  033%=      5-min Rain = 0
KPG1 011811Z 05012G18KT 14/M03 A3028 RMK A01 T01351026  RH  033%=      5-min Rain = 0
KPG1 011812Z 03018KT 13/M03 A3028 RMK A01 T01341029  RH  032%=      5-min Rain = 0
KPG1 011813Z 04015G20KT 13/M03 A3028 RMK A01 T01291031  RH  033%=      5-min Rain = 0
KPG1 011814Z 04010KT 13/M03 A3028 RMK A01 T01261031  RH  033%=      5-min Rain = 0
KPG1 011815Z 05011KT 12/M03 A3028 RMK A01 T01241031  RH  034%=      5-min Rain = 0
KPG1 011816Z 04013KT 13/M03 A3028 RMK A01 T01281026  RH  034%=      5-min Rain = 0
KPG1 011817Z 05011G17KT 13/M03 A3028 RMK A01 T01301027  RH  033%=      5-min Rain = 0
KPG1 011818Z 03013KT 13/M03 A3028 RMK A01 T01301028  RH  033%=      5-min Rain = 0
KPG1 011819Z 04011KT 13/M03 A3028 RMK A01 T01271031  RH  033%=      5-min Rain = 0
KPG1 011820Z 05010KT 13/M03 A3028 RMK A01 T01261030  RH  034%=      5-min Rain = 0
KPG1 011821Z 07009G14KT 13/M03 A3028 RMK A01 T01251029  RH  034%=      5-min Rain = 0
KPG1 011822Z 07015KT 13/M03 A3028 RMK A01 T01301027  RH  034%=      5-min Rain = 0
KPG1 011823Z 08011KT 13/M03 A3028 RMK A01 T01281029  RH  033%=      5-min Rain = 0
KPG1 011824Z 07012KT 13/M03 A3028 RMK A01 T01271029  RH  034%=      5-min Rain = 0
KPG1 011825Z 07016G21KT 13/M03 A3028 RMK A01 T01281028  RH  034%=      5-min Rain = 0
KPG1 011826Z 08013G18KT 13/M03 A3028 RMK A01 T01281028  RH  034%=      5-min Rain = 0
KPG1 011827Z 05010KT 13/M03 A3028 RMK A01 T01271029  RH  034%=      5-min Rain = 0
KPG1 011828Z 06013G19KT 13/M03 A3028 RMK A01 T01321025  RH  033%=      5-min Rain = 0
KPG1 011829Z 08012KT 13/M03 A3028 RMK A01 T01331028  RH  033%=      5-min Rain = 0
KPG1 011830Z 07015KT 13/M03 A3028 RMK A01 T01321028  RH  033%=      5-min Rain = 0
KPG1 011831Z 08015KT 13/M03 A3028 RMK A01 T01281031  RH  033%=      5-min Rain = 0
KPG1 011832Z 07009KT 13/M03 A3028 RMK A01 T01261030  RH  034%=      5-min Rain = 0
KPG1 011833Z 07013G18KT 13/M03 A3028 RMK A01 T01291028  RH  034%=      5-min Rain = 0
KPG1 011834Z 06015KT 13/M03 A3028 RMK A01 T01281030  RH  033%=      5-min Rain = 0
KPG1 011835Z 07015KT 13/M03 A3028 RMK A01 T01281029  RH  033%=      5-min Rain = 0
KPG1 011836Z 05009KT 13/M03 A3029 RMK A01 T01251031  RH  034%=      5-min Rain = 0
KPG1 011837Z 05007KT 13/M03 A3028 RMK A01 T01251030  RH  034%=      5-min Rain = 0
KPG1 011838Z 08007KT 13/M03 A3028 RMK A01 T01271028  RH  034%=      5-min Rain = 0
KPG1 011839Z 09011KT 13/M03 A3028 RMK A01 T01311027  RH  033%=      5-min Rain = 0
KPG1 011840Z 11009KT 13/M03 A3028 RMK A01 T01281031  RH  033%=      5-min Rain = 0
KPG1 011841Z 08006KT 13/M03 A3028 RMK A01 T01271030  RH  034%=      5-min Rain = 0
KPG1 011842Z 09008KT 13/M03 A3028 RMK A01 T01301026  RH  034%=      5-min Rain = 0
KPG1 011843Z 09009KT 13/M03 A3028 RMK A01 T01331028  RH  033%=      5-min Rain = 0
KPG1 011844Z 09013KT 13/M03 A3027 RMK A01 T01301030  RH  033%=      5-min Rain = 0
KPG1 011845Z 04016KT 13/M03 A3028 RMK A01 T01311029  RH  033%=      5-min Rain = 0
KPG1 011846Z 02015G20KT 13/M03 A3027 RMK A01 T01321030  RH  032%=      5-min Rain = 0
KPG1 011847Z 05011KT 13/M03 A3028 RMK A01 T01311030  RH  033%=      5-min Rain = 0
KPG1 011848Z 07012KT 13/M03 A3027 RMK A01 T01331029  RH  032%=      5-min Rain = 0
KPG1 011849Z 04013KT 14/M03 A3028 RMK A01 T01351028  RH  032%=      5-min Rain = 0
KPG1 011850Z 05011KT 13/M03 A3028 RMK A01 T01341030  RH  032%=      5-min Rain = 0
KPG1 011851Z 07011G16KT 13/M03 A3028 RMK A01 T01311031  RH  032%=      5-min Rain = 0
KPG1 011852Z 07014KT 13/M03 A3027 RMK A01 T01301030  RH  033%=      5-min Rain = 0
KPG1 011853Z 07015G20KT 13/M03 A3027 RMK A01 T01321028  RH  033%=      5-min Rain = 0
KPG1 011854Z 07016KT 13/M03 A3027 RMK A01 T01331029  RH  032%=      5-min Rain = 0
KPG1 011855Z 08014KT 13/M03 A3027 RMK A01 T01311030  RH  032%=      5-min Rain = 0
KPG1 011856Z 06012KT 13/M03 A3027 RMK A01 T01311029  RH  033%=      5-min Rain = 0
KPG1 011857Z 06010G15KT 14/M03 A3027 RMK A01 T01351028  RH  032%=      5-min Rain = 0
KPG1 011858Z 06012KT 14/M03 A3027 RMK A01 T01361028  RH  032%=      5-min Rain = 0
KPG1 011859Z 07010KT 13/M03 A3027 RMK A01 T01331032  RH  032%=      5-min Rain = 0
KPG1 011900Z 06011KT 13/M03 A3027 RMK A01 T01301031  RH  032%=      5-min Rain = 0
KPG1 011901Z 06008KT 13/M03 A3027 RMK A01 T01291031  RH  033%=      5-min Rain = 0
KPG1 011902Z 06010G15KT 13/M03 A3027 RMK A01 T01321028  RH  033%=      5-min Rain = 0
KPG1 011903Z 07015KT 14/M03 A3027 RMK A01 T01351028  RH  032%=      5-min Rain = 0
KPG1 011904Z 08014KT 14/M03 A3028 RMK A01 T01361029  RH  032%=      5-min Rain = 0
KPG1 011905Z 08011KT 13/M03 A3028 RMK A01 T01321031  RH  032%=      5-min Rain = 0
KPG1 011906Z 06006KT 13/M03 A3028 RMK A01 T01321029  RH  032%=      5-min Rain = 0
KPG1 011907Z 08010G18KT 13/M03 A3027 RMK A01 T01341030  RH  032%=      5-min Rain = 0
KPG1 011908Z 08013G18KT 13/M03 A3027 RMK A01 T01321032  RH  032%=      5-min Rain = 0
KPG1 011909Z 07010KT 13/M03 A3027 RMK A01 T01301031  RH  032%=      5-min Rain = 0
KPG1 011910Z 06009KT 13/M03 A3027 RMK A01 T01281033  RH  032%=      5-min Rain = 0
KPG1 011911Z 05013KT 13/M03 A3027 RMK A01 T01261032  RH  033%=      5-min Rain = 0
KPG1 011912Z 06012KT 13/M03 A3027 RMK A01 T01301029  RH  033%=      5-min Rain = 0
KPG1 011913Z 07014KT 13/M03 A3027 RMK A01 T01311030  RH  033%=      5-min Rain = 0
KPG1 011914Z 06010KT 13/M03 A3027 RMK A01 T01291031  RH  033%=      5-min Rain = 0
KPG1 011915Z 06009KT 13/M03 A3027 RMK A01 T01291030  RH  033%=      5-min Rain = 0
KPG1 011916Z 05009KT 13/M03 A3027 RMK A01 T01311029  RH  033%=      5-min Rain = 0
KPG1 011917Z 07012KT 13/M03 A3027 RMK A01 T01321029  RH  033%=      5-min Rain = 0
KPG1 011918Z 07012KT 13/M03 A3027 RMK A01 T01341028  RH  032%=      5-min Rain = 0
KPG1 011919Z 06012KT 14/M03 A3027 RMK A01 T01371027  RH  032%=      5-min Rain = 0
KPG1 011920Z 07014KT 14/M03 A3027 RMK A01 T01381028  RH  032%=      5-min Rain = 0
KPG1 011921Z 06014KT 14/M03 A3027 RMK A01 T01381028  RH  032%=      5-min Rain = 0
KPG1 011922Z 06015KT 14/M03 A3027 RMK A01 T01371030  RH  031%=      5-min Rain = 0
KPG1 011923Z 08013KT 14/M03 A3027 RMK A01 T01351030  RH  032%=      5-min Rain = 0
KPG1 011924Z 05012KT 13/M03 A3027 RMK A01 T01341029  RH  032%=      5-min Rain = 0
KPG1 011925Z 05010KT 13/M03 A3027 RMK A01 T01331030  RH  032%=      5-min Rain = 0
KPG1 011926Z 08012KT 13/M03 A3027 RMK A01 T01341028  RH  032%=      5-min Rain = 0
KPG1 011927Z 06012KT 14/M03 A3027 RMK A01 T01371026  RH  032%=      5-min Rain = 0
KPG1 011928Z 07011KT 14/M03 A3027 RMK A01 T01381028  RH  032%=      5-min Rain = 0
KPG1 011929Z 07012KT 14/M03 A3027 RMK A01 T01381029  RH  031%=      5-min Rain = 0
KPG1 011930Z 07014G21KT 14/M03 A3027 RMK A01 T01351029  RH  032%=      5-min Rain = 0
KPG1 011931Z 07017KT 14/M03 A3026 RMK A01 T01351028  RH  032%=      5-min Rain = 0
KPG1 011932Z 06013KT 13/M03 A3027 RMK A01 T01331029  RH  032%=      5-min Rain = 0
KPG1 011933Z 07013KT 13/M03 A3026 RMK A01 T01321029  RH  033%=      5-min Rain = 0
KPG1 011934Z 08015KT 13/M03 A3026 RMK A01 T01321028  RH  033%=      5-min Rain = 0
KPG1 011935Z 07012KT 13/M03 A3026 RMK A01 T01301029  RH  033%=      5-min Rain = 0
KPG1 011936Z 06013KT 13/M03 A3026 RMK A01 T01291029  RH  033%=      5-min Rain = 0
KPG1 011937Z 06012KT 13/M03 A3026 RMK A01 T01291028  RH  034%=      5-min Rain = 0
KPG1 011938Z 06014G19KT 13/M03 A3026 RMK A01 T01321025  RH  033%=      5-min Rain = 0
KPG1 011939Z 09011KT 13/M03 A3026 RMK A01 T01311028  RH  033%=      5-min Rain = 0
KPG1 011940Z 08008KT 13/M03 A3026 RMK A01 T01291027  RH  034%=      5-min Rain = 0
KPG1 011941Z 08011KT 13/M02 A3026 RMK A01 T01321024  RH  034%=      5-min Rain = 0
KPG1 011942Z 06018KT 13/M03 A3026 RMK A01 T01341025  RH  033%=      5-min Rain = 0
KPG1 011943Z 05013KT 13/M03 A3026 RMK A01 T01341025  RH  033%=      5-min Rain = 0
KPG1 011944Z 08014KT 14/M02 A3026 RMK A01 T01371024  RH  033%=      5-min Rain = 0
KPG1 011945Z 08014G19KT 14/M03 A3027 RMK A01 T01371025  RH  032%=      5-min Rain = 0
KPG1 011946Z 06007KT 13/M03 A3027 RMK A01 T01321029  RH  033%=      5-min Rain = 0
KPG1 011947Z 06012KT 13/M03 A3027 RMK A01 T01311027  RH  033%=      5-min Rain = 0
KPG1 011948Z 06013KT 13/M03 A3026 RMK A01 T01311027  RH  033%=      5-min Rain = 0
KPG1 011949Z 06016KT 13/M03 A3026 RMK A01 T01331027  RH  033%=      5-min Rain = 0
KPG1 011950Z 09017KT 13/M03 A3026 RMK A01 T01331027  RH  033%=      5-min Rain = 0
KPG1 011951Z 10010G18KT 13/M03 A3026 RMK A01 T01301029  RH  033%=      5-min Rain = 0
KPG1 011952Z 08009G15KT 13/M03 A3026 RMK A01 T01271028  RH  034%=      5-min Rain = 0
KPG1 011953Z 07013G18KT 13/M03 A3026 RMK A01 T01291027  RH  034%=      5-min Rain = 0
KPG1 011954Z 06013G18KT 14/M03 A3026 RMK A01 T01361025  RH  033%=      5-min Rain = 0
KPG1 011955Z 04009G15KT 13/M03 A3026 RMK A01 T01321030  RH  032%=      5-min Rain = 0
KPG1 011956Z 05010G15KT 13/M03 A3026 RMK A01 T01291029  RH  033%=      5-min Rain = 0
KPG1 011957Z 06015KT 13/M03 A3026 RMK A01 T01321026  RH  033%=      5-min Rain = 0
KPG1 011958Z 07014KT 14/M03 A3026 RMK A01 T01361025  RH  033%=      5-min Rain = 0
KPG1 011959Z 06012KT 14/M03 A3026 RMK A01 T01361027  RH  032%=      5-min Rain = 0
KPG1 012000Z 09010KT 14/M03 A3026 RMK A01 T01381025  RH  032%=      5-min Rain = 0
KPG1 012001Z 10010KT 14/M03 A3026 RMK A01 T01401026  RH  032%=      5-min Rain = 0
KPG1 012002Z 09008G15KT 14/M03 A3026 RMK A01 T01371027  RH  032%=      5-min Rain = 0
KPG1 012003Z 10011KT 14/M03 A3026 RMK A01 T01361027  RH  032%=      5-min Rain = 0
KPG1 012004Z 10012KT 14/M03 A3026 RMK A01 T01351028  RH  032%=      5-min Rain = 0
KPG1 012005Z 10011KT 13/M03 A3026 RMK A01 T01341027  RH  033%=      5-min Rain = 0
KPG1 012006Z 08013KT 14/M03 A3026 RMK A01 T01351025  RH  033%=      5-min Rain = 0
KPG1 012007Z 07013KT 14/M02 A3026 RMK A01 T01361024  RH  033%=      5-min Rain = 0
KPG1 012008Z 09016KT 14/M03 A3026 RMK A01 T01361026  RH  032%=      5-min Rain = 0
KPG1 012009Z 08016KT 14/M03 A3026 RMK A01 T01351026  RH  033%=      5-min Rain = 0
KPG1 012010Z 08010KT 13/M03 A3026 RMK A01 T01341025  RH  033%=      5-min Rain = 0
KPG1 012011Z 07014KT 13/M03 A3026 RMK A01 T01331026  RH  033%=      5-min Rain = 0
KPG1 012012Z 07012KT 13/M03 A3026 RMK A01 T01321027  RH  033%=      5-min Rain = 0
KPG1 012013Z 08009KT 13/M03 A3026 RMK A01 T01311027  RH  033%=      5-min Rain = 0
KPG1 012014Z 06015KT 13/M03 A3026 RMK A01 T01311026  RH  033%=      5-min Rain = 0
KPG1 012015Z 05012KT 13/M03 A3026 RMK A01 T01311027  RH  033%=      5-min Rain = 0
KPG1 012016Z 06012G17KT 13/M03 A3026 RMK A01 T01341025  RH  033%=      5-min Rain = 0
KPG1 012017Z 06012KT 14/M03 A3025 RMK A01 T01361025  RH  033%=      5-min Rain = 0
KPG1 012018Z 07013G18KT 14/M02 A3025 RMK A01 T01381024  RH  033%=      5-min Rain = 0
KPG1 012019Z 07017KT 14/M02 A3025 RMK A01 T01391024  RH  032%=      5-min Rain = 0
KPG1 012020Z 06014KT 14/M03 A3026 RMK A01 T01371025  RH  032%=      5-min Rain = 0
KPG1 012021Z 07014G19KT 14/M03 A3025 RMK A01 T01361025  RH  033%=      5-min Rain = 0
KPG1 012022Z 09014KT 14/M03 A3025 RMK A01 T01351026  RH  033%=      5-min Rain = 0
KPG1 012023Z 09014KT 13/M03 A3025 RMK A01 T01331026  RH  033%=      5-min Rain = 0
KPG1 012024Z 06011KT 13/M03 A3025 RMK A01 T01321026  RH  033%=      5-min Rain = 0
KPG1 012025Z 05013KT 14/M02 A3025 RMK A01 T01361023  RH  033%=      5-min Rain = 0
KPG1 012026Z 06016KT 14/M02 A3025 RMK A01 T01401023  RH  032%=      5-min Rain = 0
KPG1 012027Z 06011KT 14/M03 A3025 RMK A01 T01391025  RH  032%=      5-min Rain = 0
KPG1 012028Z 08012KT 14/M03 A3025 RMK A01 T01371025  RH  032%=      5-min Rain = 0
KPG1 012029Z 08010G17KT 14/M02 A3025 RMK A01 T01381024  RH  032%=      5-min Rain = 0
KPG1 012030Z 09015KT 14/M02 A3025 RMK A01 T01391023  RH  032%=      5-min Rain = 0
KPG1 012031Z 09015KT 14/M02 A3025 RMK A01 T01411023  RH  032%=      5-min Rain = 0
KPG1 012032Z 08010KT 14/M02 A3025 RMK A01 T01401024  RH  032%=      5-min Rain = 0
KPG1 012033Z 06013KT 14/M02 A3025 RMK A01 T01401023  RH  032%=      5-min Rain = 0
KPG1 012034Z 07010G15KT 14/M02 A3025 RMK A01 T01431022  RH  032%=      5-min Rain = 0
KPG1 012035Z 06011G16KT 14/M02 A3025 RMK A01 T01431023  RH  032%=      5-min Rain = 0
KPG1 012036Z 06009KT 14/M03 A3025 RMK A01 T01421025  RH  031%=      5-min Rain = 0
KPG1 012037Z 07008KT 14/M03 A3025 RMK A01 T01391026  RH  032%=      5-min Rain = 0
KPG1 012038Z 05009KT 14/M03 A3025 RMK A01 T01371026  RH  032%=      5-min Rain = 0
KPG1 012039Z 06013KT 14/M03 A3025 RMK A01 T01371025  RH  033%=      5-min Rain = 0
KPG1 012040Z 07010KT 14/M03 A3025 RMK A01 T01371025  RH  032%=      5-min Rain = 0
KPG1 012041Z 09015G23KT 14/M02 A3025 RMK A01 T01401022  RH  032%=      5-min Rain = 0
KPG1 012042Z 13008KT 14/M02 A3025 RMK A01 T01411024  RH  032%=      5-min Rain = 0
KPG1 012043Z 08010KT 14/M02 A3025 RMK A01 T01411022  RH  032%=      5-min Rain = 0
KPG1 012044Z 07010G15KT 14/M02 A3025 RMK A01 T01441021  RH  032%=      5-min Rain = 0
KPG1 012045Z 10012KT 15/M02 A3025 RMK A01 T01461021  RH  031%=      5-min Rain = 0
KPG1 012046Z 08011KT 14/M02 A3025 RMK A01 T01441024  RH  031%=      5-min Rain = 0
KPG1 012047Z 06018KT 14/M02 A3025 RMK A01 T01431022  RH  032%=      5-min Rain = 0
KPG1 012048Z 09013G19KT 14/M02 A3025 RMK A01 T01421024  RH  032%=      5-min Rain = 0
KPG1 012049Z 09011G17KT 14/M02 A3025 RMK A01 T01401024  RH  032%=      5-min Rain = 0
KPG1 012050Z 09013G18KT 14/M02 A3025 RMK A01 T01411023  RH  032%=      5-min Rain = 0
KPG1 012051Z 09011KT 14/M02 A3025 RMK A01 T01411024  RH  032%=      5-min Rain = 0
KPG1 012052Z 08011KT 14/M02 A3025 RMK A01 T01391024  RH  032%=      5-min Rain = 0
KPG1 012053Z 07012KT 14/M02 A3025 RMK A01 T01411023  RH  032%=      5-min Rain = 0
KPG1 012054Z 07013KT 14/M02 A3025 RMK A01 T01441021  RH  032%=      5-min Rain = 0
KPG1 012055Z 07014KT 15/M02 A3025 RMK A01 T01451023  RH  031%=      5-min Rain = 0
KPG1 012056Z 06017KT 15/M02 A3025 RMK A01 T01461023  RH  031%=      5-min Rain = 0
KPG1 012057Z 06013KT 15/M02 A3025 RMK A01 T01471022  RH  031%=      5-min Rain = 0
KPG1 012058Z 04012G17KT 15/M02 A3025 RMK A01 T01481023  RH  031%=      5-min Rain = 0
KPG1 012059Z 04011KT 15/M02 A3025 RMK A01 T01481024  RH  030%=      5-min Rain = 0
KPG1 012100Z 06010KT 15/M02 A3025 RMK A01 T01471024  RH  031%=      5-min Rain = 0
KPG1 012101Z 03007KT 15/M02 A3025 RMK A01 T01471023  RH  031%=      5-min Rain = 0
KPG1 012102Z 05011KT 15/M02 A3025 RMK A01 T01471023  RH  031%=      5-min Rain = 0
KPG1 012103Z 07011KT 15/M02 A3025 RMK A01 T01471023  RH  031%=      5-min Rain = 0
KPG1 012104Z 07013KT 15/M02 A3025 RMK A01 T01451024  RH  031%=      5-min Rain = 0
KPG1 012105Z 07015G21KT 14/M03 A3024 RMK A01 T01421025  RH  032%=      5-min Rain = 0
KPG1 012106Z 06019G24KT 14/M02 A3024 RMK A01 T01431023  RH  032%=      5-min Rain = 0
KPG1 012107Z 04015KT 15/M02 A3025 RMK A01 T01471024  RH  031%=      5-min Rain = 0
KPG1 012108Z 02016KT 15/M03 A3025 RMK A01 T01501026  RH  030%=      5-min Rain = 0
KPG1 012109Z 01018KT 15/M03 A3025 RMK A01 T01461030  RH  029%=      5-min Rain = 0
KPG1 012110Z 02019G25KT 14/M03 A3025 RMK A01 T01441031  RH  030%=      5-min Rain = 0
KPG1 012111Z 02015KT 14/M03 A3025 RMK A01 T01441031  RH  030%=      5-min Rain = 0
KPG1 012112Z 04016KT 15/M03 A3025 RMK A01 T01471030  RH  029%=      5-min Rain = 0
KPG1 012113Z 03015KT 15/M03 A3025 RMK A01 T01491031  RH  029%=      5-min Rain = 0
KPG1 012114Z 02018KT 15/M03 A3025 RMK A01 T01481031  RH  029%=      5-min Rain = 0
KPG1 012115Z 02020G26KT 15/M03 A3025 RMK A01 T01481033  RH  029%=      5-min Rain = 0
KPG1 012116Z 02016KT 15/M03 A3025 RMK A01 T01471033  RH  029%=      5-min Rain = 0
KPG1 012117Z 02016KT 15/M03 A3025 RMK A01 T01461034  RH  029%=      5-min Rain = 0
KPG1 012118Z 04013KT 14/M04 A3025 RMK A01 T01431037  RH  029%=      5-min Rain = 0
KPG1 012119Z 03010KT 14/M04 A3025 RMK A01 T01381038  RH  029%=      5-min Rain = 0
KPG1 012120Z 02011KT 14/M03 A3025 RMK A01 T01391034  RH  030%=      5-min Rain = 0
KPG1 012121Z 04018KT 14/M03 A3025 RMK A01 T01431034  RH  029%=      5-min Rain = 0
KPG1 012122Z 04018KT 14/M04 A3025 RMK A01 T01421036  RH  029%=      5-min Rain = 0
KPG1 012123Z 04017G22KT 14/M04 A3025 RMK A01 T01431035  RH  029%=      5-min Rain = 0
KPG1 012124Z 04018KT 14/M04 A3025 RMK A01 T01411037  RH  029%=      5-min Rain = 0
KPG1 012125Z 03014KT 14/M04 A3025 RMK A01 T01401036  RH  029%=      5-min Rain = 0
KPG1 012126Z 02011KT 14/M04 A3025 RMK A01 T01411035  RH  029%=      5-min Rain = 0
KPG1 012127Z 04015KT 14/M04 A3025 RMK A01 T01431035  RH  029%=      5-min Rain = 0
KPG1 012128Z 04017KT 14/M04 A3025 RMK A01 T01441036  RH  029%=      5-min Rain = 0
KPG1 012129Z 04015KT 14/M04 A3025 RMK A01 T01421037  RH  029%=      5-min Rain = 0
KPG1 012130Z 04015KT 14/M04 A3025 RMK A01 T01411036  RH  029%=      5-min Rain = 0
KPG1 012131Z 04017KT 14/M04 A3025 RMK A01 T01411037  RH  029%=      5-min Rain = 0
KPG1 012132Z 04013G18KT 14/M04 A3025 RMK A01 T01381037  RH  029%=      5-min Rain = 0
KPG1 012133Z 02010KT 14/M04 A3025 RMK A01 T01381037  RH  029%=      5-min Rain = 0
KPG1 012134Z 04012G18KT 14/M04 A3025 RMK A01 T01391036  RH  029%=      5-min Rain = 0
KPG1 012135Z 05017G22KT 14/M04 A3025 RMK A01 T01411036  RH  029%=      5-min Rain = 0
KPG1 012136Z 35016G23KT 14/M04 A3025 RMK A01 T01441036  RH  029%=      5-min Rain = 0
KPG1 012137Z 35016KT 14/M04 A3025 RMK A01 T01441038  RH  028%=      5-min Rain = 0
KPG1 012138Z 03012KT 14/M04 A3026 RMK A01 T01431039  RH  028%=      5-min Rain = 0
KPG1 012139Z 02015G21KT 14/M04 A3026 RMK A01 T01431037  RH  028%=      5-min Rain = 0
KPG1 012140Z 02018KT 15/M04 A3026 RMK A01 T01451038  RH  028%=      5-min Rain = 0
KPG1 012141Z 04013KT 14/M04 A3026 RMK A01 T01431040  RH  028%=      5-min Rain = 0
KPG1 012142Z 02014KT 14/M04 A3025 RMK A01 T01431040  RH  028%=      5-min Rain = 0
KPG1 012143Z 05016KT 14/M04 A3025 RMK A01 T01431040  RH  028%=      5-min Rain = 0
KPG1 012144Z 05011KT 14/M04 A3025 RMK A01 T01381044  RH  028%=      5-min Rain = 0
KPG1 012145Z 04013KT 14/M04 A3025 RMK A01 T01361043  RH  029%=      5-min Rain = 0
KPG1 012146Z 05010KT 14/M04 A3025 RMK A01 T01351044  RH  029%=      5-min Rain = 0
KPG1 012147Z 05013G20KT 14/M04 A3025 RMK A01 T01361041  RH  029%=      5-min Rain = 0
KPG1 012148Z 04019KT 14/M04 A3025 RMK A01 T01391043  RH  028%=      5-min Rain = 0
KPG1 012149Z 03015G21KT 14/M05 A3025 RMK A01 T01381046  RH  028%=      5-min Rain = 0
KPG1 012150Z 02015KT 14/M04 A3025 RMK A01 T01401043  RH  028%=      5-min Rain = 0
KPG1 012151Z 01014G19KT 14/M04 A3026 RMK A01 T01431043  RH  027%=      5-min Rain = 0
KPG1 012152Z 02016G21KT 14/M05 A3026 RMK A01 T01441045  RH  027%=      5-min Rain = 0
KPG1 012153Z 36015G20KT 14/M05 A3026 RMK A01 T01401048  RH  027%=      5-min Rain = 0
KPG1 012154Z 01014KT 14/M05 A3026 RMK A01 T01381047  RH  027%=      5-min Rain = 0
KPG1 012155Z 02015KT 14/M05 A3026 RMK A01 T01401045  RH  027%=      5-min Rain = 0
KPG1 012156Z 02015KT 14/M05 A3026 RMK A01 T01401047  RH  027%=      5-min Rain = 0
KPG1 012157Z 01012G17KT 14/M05 A3026 RMK A01 T01381047  RH  027%=      5-min Rain = 0
KPG1 012158Z 02015G21KT 14/M05 A3026 RMK A01 T01381047  RH  027%=      5-min Rain = 0
KPG1 012159Z 36011KT 14/M05 A3026 RMK A01 T01371048  RH  027%=      5-min Rain = 0
KPG1 012200Z 02011KT 14/M05 A3026 RMK A01 T01371047  RH  028%=      5-min Rain = 0
KPG1 012201Z 02015G20KT 14/M05 A3026 RMK A01 T01381047  RH  027%=      5-min Rain = 0
KPG1 012202Z 02017KT 14/M05 A3026 RMK A01 T01371048  RH  027%=      5-min Rain = 0
KPG1 012203Z 02018KT 14/M05 A3026 RMK A01 T01361048  RH  027%=      5-min Rain = 0
KPG1 012204Z 02017G25KT 14/M05 A3026 RMK A01 T01371047  RH  028%=      5-min Rain = 0
KPG1 012205Z 02019KT 14/M05 A3026 RMK A01 T01381047  RH  027%=      5-min Rain = 0
KPG1 012206Z 01015G20KT 14/M05 A3026 RMK A01 T01371048  RH  027%=      5-min Rain = 0
KPG1 012207Z 02014KT 14/M05 A3026 RMK A01 T01361047  RH  028%=      5-min Rain = 0
KPG1 012208Z 02012KT 14/M05 A3026 RMK A01 T01371046  RH  028%=      5-min Rain = 0
KPG1 012209Z 02014G21KT 14/M05 A3026 RMK A01 T01381046  RH  028%=      5-min Rain = 0
KPG1 012210Z 35016G21KT 14/M05 A3026 RMK A01 T01381046  RH  028%=      5-min Rain = 0
KPG1 012211Z 35015KT 14/M05 A3026 RMK A01 T01371045  RH  028%=      5-min Rain = 0
KPG1 012212Z 00015G20KT 14/M05 A3026 RMK A01 T01361046  RH  028%=      5-min Rain = 0
KPG1 012213Z 01021G26KT 14/M04 A3026 RMK A01 T01351044  RH  029%=      5-min Rain = 0
KPG1 012214Z 01017G23KT 13/M05 A3026 RMK A01 T01321045  RH  029%=      5-min Rain = 0
KPG1 012215Z 36018KT 13/M04 A3026 RMK A01 T01311043  RH  030%=      5-min Rain = 0
KPG1 012216Z 35017G22KT 13/M04 A3026 RMK A01 T01311043  RH  030%=      5-min Rain = 0
KPG1 012217Z 34015G20KT 13/M04 A3027 RMK A01 T01321042  RH  030%=      5-min Rain = 0
KPG1 012218Z 33014KT 13/M04 A3027 RMK A01 T01321042  RH  030%=      5-min Rain = 0
KPG1 012219Z 35012G18KT 13/M04 A3027 RMK A01 T01321042  RH  030%=      5-min Rain = 0
KPG1 012220Z 35014KT 13/M04 A3027 RMK A01 T01321042  RH  030%=      5-min Rain = 0
KPG1 012221Z 35016KT 13/M04 A3027 RMK A01 T01321042  RH  030%=      5-min Rain = 0
KPG1 012222Z 35016KT 13/M04 A3027 RMK A01 T01311043  RH  029%=      5-min Rain = 0
KPG1 012223Z 34012G17KT 13/M04 A3027 RMK A01 T01311043  RH  030%=      5-min Rain = 0
KPG1 012224Z 35014G19KT 13/M04 A3027 RMK A01 T01311043  RH  030%=      5-min Rain = 0
KPG1 012225Z 35015KT 13/M04 A3027 RMK A01 T01311042  RH  030%=      5-min Rain = 0
KPG1 012226Z 33013KT 13/M04 A3027 RMK A01 T01321042  RH  029%=      5-min Rain = 0
KPG1 012227Z 34015KT 13/M04 A3027 RMK A01 T01311043  RH  030%=      5-min Rain = 0
KPG1 012228Z 35017KT 13/M04 A3027 RMK A01 T01301043  RH  030%=      5-min Rain = 0
KPG1 012229Z 00015KT 13/M04 A3027 RMK A01 T01301042  RH  030%=      5-min Rain = 0
KPG1 012230Z 02017G25KT 13/M04 A3027 RMK A01 T01291041  RH  030%=      5-min Rain = 0
KPG1 012231Z 02015G20KT 13/M04 A3027 RMK A01 T01271041  RH  031%=      5-min Rain = 0
KPG1 012232Z 34016G22KT 13/M04 A3027 RMK A01 T01261040  RH  031%=      5-min Rain = 0
KPG1 012233Z 35017G24KT 13/M04 A3027 RMK A01 T01271039  RH  031%=      5-min Rain = 0
KPG1 012234Z 35018G23KT 13/M04 A3027 RMK A01 T01271039  RH  031%=      5-min Rain = 0
KPG1 012235Z 35017KT 13/M04 A3027 RMK A01 T01271038  RH  032%=      5-min Rain = 0
KPG1 012236Z 34018KT 13/M04 A3027 RMK A01 T01281037  RH  031%=      5-min Rain = 0
KPG1 012237Z 34016KT 13/M04 A3027 RMK A01 T01271039  RH  031%=      5-min Rain = 0
KPG1 012238Z 35015KT 13/M04 A3027 RMK A01 T01251039  RH  032%=      5-min Rain = 0
KPG1 012239Z 00015KT 13/M04 A3028 RMK A01 T01261038  RH  032%=      5-min Rain = 0
KPG1 012240Z 34014G19KT 13/M04 A3028 RMK A01 T01281038  RH  031%=      5-min Rain = 0
KPG1 012241Z 35012G19KT 13/M04 A3028 RMK A01 T01281039  RH  031%=      5-min Rain = 0
KPG1 012242Z 00019G24KT 13/M04 A3028 RMK A01 T01271039  RH  031%=      5-min Rain = 0
KPG1 012243Z 36016G21KT 13/M04 A3028 RMK A01 T01261040  RH  031%=      5-min Rain = 0
KPG1 012244Z 35011KT 13/M04 A3028 RMK A01 T01271039  RH  031%=      5-min Rain = 0
KPG1 012245Z 01018G23KT 13/M04 A3028 RMK A01 T01291040  RH  031%=      5-min Rain = 0
KPG1 012246Z 36018G23KT 13/M04 A3028 RMK A01 T01271043  RH  030%=      5-min Rain = 0
KPG1 012247Z 01018KT 13/M04 A3028 RMK A01 T01251043  RH  031%=      5-min Rain = 0
KPG1 012248Z 01013G18KT 12/M04 A3028 RMK A01 T01241044  RH  031%=      5-min Rain = 0
KPG1 012249Z 35016G21KT 12/M04 A3028 RMK A01 T01241043  RH  031%=      5-min Rain = 0
KPG1 012250Z 36014G26KT 13/M04 A3028 RMK A01 T01261042  RH  031%=      5-min Rain = 0
KPG1 012251Z 01018G23KT 13/M04 A3028 RMK A01 T01271043  RH  030%=      5-min Rain = 0
KPG1 012252Z 01017G23KT 13/M04 A3028 RMK A01 T01261044  RH  030%=      5-min Rain = 0
KPG1 012253Z 01017KT 13/M04 A3028 RMK A01 T01261044  RH  030%=      5-min Rain = 0
KPG1 012254Z 00013KT 13/M04 A3028 RMK A01 T01261044  RH  030%=      5-min Rain = 0
KPG1 012255Z 35017KT 13/M04 A3028 RMK A01 T01261044  RH  030%=      5-min Rain = 0
KPG1 012256Z 35018KT 13/M04 A3028 RMK A01 T01261044  RH  030%=      5-min Rain = 0
KPG1 012257Z 00016KT 12/M05 A3028 RMK A01 T01241045  RH  030%=      5-min Rain = 0
KPG1 012258Z 36014G19KT 12/M05 A3028 RMK A01 T01241045  RH  030%=      5-min Rain = 0
KPG1 012259Z 35015KT 13/M04 A3028 RMK A01 T01261044  RH  030%=      5-min Rain = 0
KPG1 012300Z 35018KT 13/M05 A3028 RMK A01 T01271045  RH  030%=      5-min Rain = 0
KPG1 012301Z 35014KT 13/M05 A3028 RMK A01 T01251047  RH  030%=      5-min Rain = 0
KPG1 012302Z 35015KT 13/M05 A3028 RMK A01 T01251046  RH  030%=      5-min Rain = 0
KPG1 012303Z 00013KT 13/M04 A3028 RMK A01 T01271044  RH  030%=      5-min Rain = 0
KPG1 012304Z 00015G20KT 13/M04 A3028 RMK A01 T01291044  RH  030%=      5-min Rain = 0
KPG1 012305Z 00018KT 13/M05 A3029 RMK A01 T01271045  RH  030%=      5-min Rain = 0
KPG1 012306Z 36018G23KT 13/M04 A3029 RMK A01 T01251044  RH  030%=      5-min Rain = 0
KPG1 012307Z 02017KT 12/M04 A3029 RMK A01 T01231044  RH  031%=      5-min Rain = 0
KPG1 012308Z 02019G24KT 12/M04 A3029 RMK A01 T01221043  RH  031%=      5-min Rain = 0
KPG1 012309Z 02015KT 12/M04 A3029 RMK A01 T01231043  RH  031%=      5-min Rain = 0
KPG1 012310Z 01015KT 12/M04 A3029 RMK A01 T01231042  RH  031%=      5-min Rain = 0
KPG1 012311Z 01016KT 12/M04 A3029 RMK A01 T01241042  RH  031%=      5-min Rain = 0
KPG1 012312Z 01014KT 12/M04 A3029 RMK A01 T01241042  RH  031%=      5-min Rain = 0
KPG1 012313Z 01019G25KT 12/M04 A3029 RMK A01 T01231042  RH  031%=      5-min Rain = 0
KPG1 012314Z 36018G24KT 12/M04 A3029 RMK A01 T01211042  RH  032%=      5-min Rain = 0
KPG1 012315Z 02011KT 12/M04 A3029 RMK A01 T01191041  RH  032%=      5-min Rain = 0
KPG1 012316Z 01013KT 12/M04 A3029 RMK A01 T01201040  RH  032%=      5-min Rain = 0
KPG1 012317Z 01014KT 12/M04 A3029 RMK A01 T01211041  RH  032%=      5-min Rain = 0
KPG1 012318Z 35015KT 12/M04 A3029 RMK A01 T01211040  RH  032%=      5-min Rain = 0
KPG1 012319Z 01015G21KT 12/M04 A3029 RMK A01 T01211040  RH  032%=      5-min Rain = 0
KPG1 012320Z 00017G25KT 12/M04 A3029 RMK A01 T01191040  RH  033%=      5-min Rain = 0
KPG1 012321Z 35016KT 12/M04 A3029 RMK A01 T01181040  RH  033%=      5-min Rain = 0
KPG1 012322Z 35015KT 12/M04 A3029 RMK A01 T01181043  RH  032%=      5-min Rain = 0
KPG1 012323Z 35014KT 12/M04 A3029 RMK A01 T01181042  RH  032%=      5-min Rain = 0
KPG1 012324Z 01014G19KT 12/M04 A303 RMK A01 T01191042  RH  032%=      5-min Rain = 0
KPG1 012325Z 01014G20KT 12/M04 A303 RMK A01 T01191042  RH  032%=      5-min Rain = 0
KPG1 012326Z 01015G24KT 12/M04 A303 RMK A01 T01191042  RH  032%=      5-min Rain = 0
KPG1 012327Z 01014G20KT 12/M04 A303 RMK A01 T01171042  RH  033%=      5-min Rain = 0
KPG1 012328Z 35014KT 12/M04 A303 RMK A01 T01171040  RH  033%=      5-min Rain = 0
KPG1 012329Z 35016KT 12/M04 A303 RMK A01 T01171039  RH  033%=      5-min Rain = 0
KPG1 012330Z 35014KT 12/M04 A303 RMK A01 T01171039  RH  033%=      5-min Rain = 0
KPG1 012331Z 36012KT 12/M04 A303 RMK A01 T01171039  RH  034%=      5-min Rain = 0
KPG1 012332Z 35015G20KT 12/M04 A303 RMK A01 T01171039  RH  033%=      5-min Rain = 0
KPG1 012333Z 35018KT 12/M04 A303 RMK A01 T01171038  RH  033%=      5-min Rain = 0
KPG1 012334Z 35019KT 12/M04 A303 RMK A01 T01161038  RH  034%=      5-min Rain = 0
KPG1 012335Z 36014KT 11/M04 A303 RMK A01 T01141038  RH  034%=      5-min Rain = 0
KPG1 012336Z 01017KT 11/M04 A303 RMK A01 T01141038  RH  034%=      5-min Rain = 0
KPG1 012337Z 00012G17KT 11/M04 A303 RMK A01 T01141037  RH  035%=      5-min Rain = 0
KPG1 012338Z 35018KT 12/M04 A303 RMK A01 T01161036  RH  034%=      5-min Rain = 0
KPG1 012339Z 36019KT 11/M04 A303 RMK A01 T01141037  RH  035%=      5-min Rain = 0
KPG1 012340Z 00014KT 11/M04 A303 RMK A01 T01121037  RH  035%=      5-min Rain = 0
KPG1 012341Z 35015G21KT 11/M04 A303 RMK A01 T01121037  RH  035%=      5-min Rain = 0
KPG1 012342Z 35016KT 11/M04 A303 RMK A01 T01121036  RH  035%=      5-min Rain = 0
KPG1 012343Z 35018KT 11/M04 A303 RMK A01 T01111036  RH  035%=      5-min Rain = 0
KPG1 012344Z 35015G21KT 11/M04 A303 RMK A01 T01111036  RH  035%=      5-min Rain = 0
KPG1 012345Z 35015G22KT 11/M04 A303 RMK A01 T01111035  RH  036%=      5-min Rain = 0
KPG1 012346Z 34017KT 11/M04 A303 RMK A01 T01111035  RH  036%=      5-min Rain = 0
KPG1 012347Z 35016KT 11/M03 A303 RMK A01 T01121034  RH  036%=      5-min Rain = 0
KPG1 012348Z 36014KT 11/M03 A303 RMK A01 T01121033  RH  036%=      5-min Rain = 0
KPG1 012349Z 36013KT 11/M03 A3031 RMK A01 T01121033  RH  036%=      5-min Rain = 0
KPG1 012350Z 35015G20KT 11/M03 A3031 RMK A01 T01131033  RH  036%=      5-min Rain = 0
KPG1 012351Z 35016KT 11/M03 A3031 RMK A01 T01111033  RH  036%=      5-min Rain = 0
KPG1 012352Z 35021KT 11/M03 A3031 RMK A01 T01091032  RH  037%=      5-min Rain = 0
KPG1 012353Z 35022KT 11/M03 A3031 RMK A01 T01061033  RH  038%=      5-min Rain = 0
KPG1 012354Z 35019KT 10/M03 A3031 RMK A01 T01041033  RH  038%=      5-min Rain = 0
KPG1 012355Z 35020KT 10/M03 A3031 RMK A01 T01041032  RH  038%=      5-min Rain = 0
KPG1 012356Z 35018G23KT 10/M03 A3031 RMK A01 T01031032  RH  039%=      5-min Rain = 0
KPG1 012357Z 36020G25KT 10/M03 A3031 RMK A01 T01031032  RH  039%=      5-min Rain = 0
KPG1 012358Z 35022KT 10/M03 A3031 RMK A01 T01031033  RH  038%=      5-min Rain = 0
KPG1 012359Z 35021KT 10/M03 A3031 RMK A01 T01021033  RH  038%=      5-min Rain = 0
KPG1 020000Z 35016KT 10/M03 A3031 RMK A01 T01021033  RH  039%=      5-min Rain = 0
KPG1 020001Z 36014G19KT 10/M03 A3031 RMK A01 T01021032  RH  039%=      5-min Rain = 0
KPG1 020002Z 35022KT 10/M03 A3031 RMK A01 T01031032  RH  039%=      5-min Rain = 0
KPG1 020003Z 35022KT 10/M03 A3031 RMK A01 T01011033  RH  039%=      5-min Rain = 0
KPG1 020004Z 35021G26KT 10/M03 A3032 RMK A01 T00991033  RH  039%=      5-min Rain = 0
KPG1 020005Z 35020KT 10/M03 A3032 RMK A01 T00981032  RH  040%=      5-min Rain = 0
KPG1 020006Z 36019KT 10/M03 A3032 RMK A01 T00981032  RH  040%=      5-min Rain = 0
KPG1 020007Z 36017KT 10/M03 A3032 RMK A01 T00981032  RH  040%=      5-min Rain = 0
KPG1 020008Z 35015G20KT 10/M03 A3032 RMK A01 T00981031  RH  040%=      5-min Rain = 0
KPG1 020009Z 36017KT 10/M03 A3032 RMK A01 T00991031  RH  040%=      5-min Rain = 0
KPG1 020010Z 01019G25KT 10/M03 A3032 RMK A01 T00981031  RH  040%=      5-min Rain = 0
KPG1 020011Z 01020KT 10/M03 A3032 RMK A01 T00981032  RH  040%=      5-min Rain = 0
KPG1 020012Z 01020KT 10/M03 A3032 RMK A01 T00971032  RH  040%=      5-min Rain = 0
KPG1 020013Z 00018G23KT 10/M03 A3033 RMK A01 T00961031  RH  041%=      5-min Rain = 0
KPG1 020014Z 01020KT 10/M03 A3033 RMK A01 T00961030  RH  041%=      5-min Rain = 0
KPG1 020015Z 01018KT 10/M03 A3033 RMK A01 T00951030  RH  041%=      5-min Rain = 0
KPG1 020016Z 00015G20KT 10/M03 A3033 RMK A01 T00951030  RH  041%=      5-min Rain = 0
KPG1 020017Z 01017KT 10/M03 A3033 RMK A01 T00951029  RH  042%=      5-min Rain = 0
KPG1 020018Z 01021G27KT 09/M03 A3033 RMK A01 T00941029  RH  042%=      5-min Rain = 0
KPG1 020019Z 01019KT 09/M03 A3033 RMK A01 T00931029  RH  042%=      5-min Rain = 0
KPG1 020020Z 01020KT 09/M03 A3033 RMK A01 T00921029  RH  042%=      5-min Rain = 0
KPG1 020021Z 00024KT 09/M03 A3033 RMK A01 T00921029  RH  043%=      5-min Rain = 0
KPG1 020022Z 01021KT 09/M03 A3033 RMK A01 T00911029  RH  043%=      5-min Rain = 0
KPG1 020023Z 01018G25KT 09/M03 A3033 RMK A01 T00901029  RH  043%=      5-min Rain = 0
KPG1 020024Z 01016G21KT 09/M03 A3033 RMK A01 T00901029  RH  043%=      5-min Rain = 0
KPG1 020025Z 01019KT 09/M03 A3033 RMK A01 T00901029  RH  043%=      5-min Rain = 0
KPG1 020026Z 01020KT 09/M03 A3033 RMK A01 T00901028  RH  043%=      5-min Rain = 0
KPG1 020027Z 01018KT 09/M03 A3033 RMK A01 T00901028  RH  044%=      5-min Rain = 0
KPG1 020028Z 01019KT 09/M03 A3033 RMK A01 T00891028  RH  044%=      5-min Rain = 0
KPG1 020029Z 01019G26KT 09/M03 A3033 RMK A01 T00881028  RH  044%=      5-min Rain = 0
KPG1 020030Z 01020KT 09/M03 A3033 RMK A01 T00881027  RH  044%=      5-min Rain = 0
KPG1 020031Z 01019G27KT 09/M03 A3033 RMK A01 T00871027  RH  045%=      5-min Rain = 0
KPG1 020032Z 01021G26KT 09/M03 A3033 RMK A01 T00861026  RH  045%=      5-min Rain = 0
KPG1 020033Z 01020G25KT 09/M03 A3034 RMK A01 T00861026  RH  045%=      5-min Rain = 0
KPG1 020034Z 01020G25KT 09/M03 A3034 RMK A01 T00861026  RH  045%=      5-min Rain = 0
KPG1 020035Z 00022KT 09/M03 A3034 RMK A01 T00851026  RH  046%=      5-min Rain = 0
KPG1 020036Z 01019G25KT 09/M03 A3034 RMK A01 T00851026  RH  046%=      5-min Rain = 0
KPG1 020037Z 00021KT 08/M03 A3034 RMK A01 T00841025  RH  046%=      5-min Rain = 0
KPG1 020038Z 00018G25KT 08/M03 A3034 RMK A01 T00841025  RH  046%=      5-min Rain = 0
KPG1 020039Z 01016G24KT 08/M03 A3034 RMK A01 T00831025  RH  046%=      5-min Rain = 0
KPG1 020040Z 00020KT 08/M03 A3034 RMK A01 T00831026  RH  046%=      5-min Rain = 0
KPG1 020041Z 01023G28KT 08/M03 A3034 RMK A01 T00831026  RH  046%=      5-min Rain = 0
KPG1 020042Z 01020KT 08/M03 A3034 RMK A01 T00831026  RH  046%=      5-min Rain = 0
KPG1 020043Z 01021KT 08/M03 A3034 RMK A01 T00821026  RH  046%=      5-min Rain = 0
KPG1 020044Z 01019G24KT 08/M03 A3034 RMK A01 T00821026  RH  046%=      5-min Rain = 0
KPG1 020045Z 01019KT 08/M03 A3034 RMK A01 T00821026  RH  046%=      5-min Rain = 0
KPG1 020046Z 00016KT 08/M03 A3034 RMK A01 T00811026  RH  047%=      5-min Rain = 0
KPG1 020047Z 01016G21KT 08/M03 A3034 RMK A01 T00811026  RH  047%=      5-min Rain = 0
KPG1 020048Z 01016KT 08/M03 A3034 RMK A01 T00811025  RH  047%=      5-min Rain = 0
KPG1 020049Z 01020KT 08/M03 A3034 RMK A01 T00801025  RH  047%=      5-min Rain = 0
KPG1 020050Z 01021KT 08/M03 A3034 RMK A01 T00801026  RH  047%=      5-min Rain = 0
KPG1 020051Z 01019G24KT 08/M03 A3034 RMK A01 T00791025  RH  048%=      5-min Rain = 0
KPG1 020052Z 01017G24KT 08/M03 A3034 RMK A01 T00791025  RH  048%=      5-min Rain = 0
KPG1 020053Z 01021KT 08/M03 A3034 RMK A01 T00781025  RH  048%=      5-min Rain = 0
KPG1 020054Z 01021KT 08/M02 A3034 RMK A01 T00781024  RH  048%=      5-min Rain = 0
KPG1 020055Z 01020KT 08/M02 A3034 RMK A01 T00781024  RH  049%=      5-min Rain = 0
KPG1 020056Z 01017KT 08/M02 A3034 RMK A01 T00771024  RH  049%=      5-min Rain = 0
KPG1 020057Z 01019KT 08/M02 A3034 RMK A01 T00771024  RH  049%=      5-min Rain = 0
KPG1 020058Z 01018KT 08/M02 A3034 RMK A01 T00771024  RH  049%=      5-min Rain = 0
KPG1 020059Z 01017KT 08/M02 A3034 RMK A01 T00771023  RH  049%=      5-min Rain = 0
KPG1 020100Z 01019G24KT 08/M02 A3034 RMK A01 T00771023  RH  049%=      5-min Rain = 0
KPG1 020101Z 01016G21KT 08/M02 A3034 RMK A01 T00761023  RH  049%=      5-min Rain = 0
KPG1 020102Z 01014KT 08/M02 A3034 RMK A01 T00771023  RH  049%=      5-min Rain = 0
KPG1 020103Z 01015KT 08/M02 A3034 RMK A01 T00761023  RH  049%=      5-min Rain = 0
KPG1 020104Z 01014KT 08/M02 A3034 RMK A01 T00761023  RH  050%=      5-min Rain = 0
KPG1 020105Z 01019KT 08/M02 A3034 RMK A01 T00761023  RH  050%=      5-min Rain = 0
KPG1 020106Z 01019G24KT 08/M02 A3034 RMK A01 T00761022  RH  050%=      5-min Rain = 0
KPG1 020107Z 02018G23KT 08/M02 A3034 RMK A01 T00761022  RH  050%=      5-min Rain = 0
KPG1 020108Z 01017G22KT 08/M02 A3035 RMK A01 T00751022  RH  050%=      5-min Rain = 0
KPG1 020109Z 01017KT 08/M02 A3035 RMK A01 T00751022  RH  050%=      5-min Rain = 0
KPG1 020110Z 01018KT 08/M02 A3035 RMK A01 T00751022  RH  050%=      5-min Rain = 0
KPG1 020111Z 01019KT 08/M02 A3035 RMK A01 T00751022  RH  050%=      5-min Rain = 0
KPG1 020112Z 01018KT 08/M02 A3035 RMK A01 T00751022  RH  050%=      5-min Rain = 0
KPG1 020113Z 01018KT 08/M02 A3035 RMK A01 T00751022  RH  050%=      5-min Rain = 0
KPG1 020114Z 01016KT 08/M02 A3035 RMK A01 T00751022  RH  050%=      5-min Rain = 0
KPG1 020115Z 01019KT 07/M02 A3035 RMK A01 T00741022  RH  050%=      5-min Rain = 0
KPG1 020116Z 01019KT 07/M02 A3035 RMK A01 T00741022  RH  051%=      5-min Rain = 0
KPG1 020117Z 01018KT 07/M02 A3035 RMK A01 T00741022  RH  051%=      5-min Rain = 0
KPG1 020118Z 01021KT 07/M02 A3035 RMK A01 T00741022  RH  051%=      5-min Rain = 0
KPG1 020119Z 01019KT 07/M02 A3035 RMK A01 T00741022  RH  051%=      5-min Rain = 0
KPG1 020120Z 01019KT 07/M02 A3036 RMK A01 T00731022  RH  051%=      5-min Rain = 0
KPG1 020121Z 01020KT 07/M02 A3036 RMK A01 T00731022  RH  051%=      5-min Rain = 0
KPG1 020122Z 01017KT 07/M02 A3036 RMK A01 T00731022  RH  051%=      5-min Rain = 0
KPG1 020123Z 01019KT 07/M02 A3036 RMK A01 T00731022  RH  051%=      5-min Rain = 0
KPG1 020124Z 01021KT 07/M02 A3035 RMK A01 T00731022  RH  051%=      5-min Rain = 0
KPG1 020125Z 01019KT 07/M02 A3035 RMK A01 T00721022  RH  051%=      5-min Rain = 0
KPG1 020126Z 01019KT 07/M02 A3035 RMK A01 T00721022  RH  051%=      5-min Rain = 0
KPG1 020127Z 00020G27KT 07/M02 A3035 RMK A01 T00721022  RH  051%=      5-min Rain = 0
KPG1 020128Z 01019G24KT 07/M02 A3035 RMK A01 T00711022  RH  051%=      5-min Rain = 0
KPG1 020129Z 01020KT 07/M02 A3035 RMK A01 T00711022  RH  052%=      5-min Rain = 0
KPG1 020130Z 01020KT 07/M02 A3035 RMK A01 T00711022  RH  052%=      5-min Rain = 0
KPG1 020131Z 01019G24KT 07/M02 A3035 RMK A01 T00701022  RH  052%=      5-min Rain = 0
KPG1 020132Z 01018G24KT 07/M02 A3035 RMK A01 T00701022  RH  052%=      5-min Rain = 0
KPG1 020133Z 01018G24KT 07/M02 A3035 RMK A01 T00701022  RH  052%=      5-min Rain = 0
KPG1 020134Z 01016KT 07/M02 A3035 RMK A01 T00691022  RH  052%=      5-min Rain = 0
KPG1 020135Z 01020G25KT 07/M02 A3035 RMK A01 T00691022  RH  052%=      5-min Rain = 0
KPG1 020136Z 02017KT 07/M02 A3035 RMK A01 T00691022  RH  052%=      5-min Rain = 0
KPG1 020137Z 00018G23KT 07/M02 A3036 RMK A01 T00691021  RH  053%=      5-min Rain = 0
KPG1 020138Z 01020KT 07/M02 A3036 RMK A01 T00691021  RH  053%=      5-min Rain = 0
KPG1 020139Z 01018G23KT 07/M02 A3036 RMK A01 T00681021  RH  053%=      5-min Rain = 0
KPG1 020140Z 00020G25KT 07/M02 A3036 RMK A01 T00681021  RH  053%=      5-min Rain = 0
KPG1 020141Z 01017KT 07/M02 A3036 RMK A01 T00681021  RH  053%=      5-min Rain = 0
KPG1 020142Z 01019KT 07/M02 A3036 RMK A01 T00681021  RH  053%=      5-min Rain = 0
KPG1 020143Z 00019KT 07/M02 A3036 RMK A01 T00671021  RH  053%=      5-min Rain = 0
KPG1 020144Z 01017KT 07/M02 A3036 RMK A01 T00671021  RH  053%=      5-min Rain = 0
KPG1 020145Z 01016KT 07/M02 A3036 RMK A01 T00681020  RH  054%=      5-min Rain = 0
KPG1 020146Z 02017KT 07/M02 A3036 RMK A01 T00681020  RH  054%=      5-min Rain = 0
KPG1 020147Z 02015KT 07/M02 A3036 RMK A01 T00671020  RH  054%=      5-min Rain = 0
KPG1 020148Z 02017KT 07/M02 A3036 RMK A01 T00671019  RH  054%=      5-min Rain = 0
KPG1 020149Z 03017KT 07/M02 A3036 RMK A01 T00671019  RH  054%=      5-min Rain = 0
KPG1 020150Z 02018KT 07/M02 A3036 RMK A01 T00671019  RH  054%=      5-min Rain = 0
KPG1 020151Z 03017G22KT 07/M02 A3036 RMK A01 T00671019  RH  054%=      5-min Rain = 0
KPG1 020152Z 03018KT 07/M02 A3036 RMK A01 T00661019  RH  054%=      5-min Rain = 0
KPG1 020153Z 03020KT 07/M02 A3036 RMK A01 T00671019  RH  054%=      5-min Rain = 0
KPG1 020154Z 02021KT 07/M02 A3037 RMK A01 T00661019  RH  054%=      5-min Rain = 0
KPG1 020155Z 02018KT 07/M02 A3037 RMK A01 T00661019  RH  055%=      5-min Rain = 0
KPG1 020156Z 01017KT 07/M02 A3037 RMK A01 T00661019  RH  055%=      5-min Rain = 0
KPG1 020157Z 02017KT 07/M02 A3036 RMK A01 T00661019  RH  055%=      5-min Rain = 0
KPG1 020158Z 02019KT 07/M02 A3036 RMK A01 T00651019  RH  055%=      5-min Rain = 0
KPG1 020159Z 02018G24KT 07/M02 A3036 RMK A01 T00651020  RH  055%=      5-min Rain = 0
KPG1 020200Z 02018G23KT 07/M02 A3036 RMK A01 T00651020  RH  055%=      5-min Rain = 0
KPG1 020201Z 02019KT 07/M02 A3036 RMK A01 T00651019  RH  055%=      5-min Rain = 0
KPG1 020202Z 02017G22KT 07/M02 A3036 RMK A01 T00651019  RH  055%=      5-min Rain = 0
KPG1 020203Z 01016KT 06/M02 A3037 RMK A01 T00641020  RH  055%=      5-min Rain = 0
KPG1 020204Z 01015G22KT 06/M02 A3037 RMK A01 T00641019  RH  055%=      5-min Rain = 0
KPG1 020205Z 01014KT 06/M02 A3037 RMK A01 T00641020  RH  055%=      5-min Rain = 0
KPG1 020206Z 01014G19KT 06/M02 A3037 RMK A01 T00641020  RH  055%=      5-min Rain = 0
KPG1 020207Z 01016KT 06/M02 A3037 RMK A01 T00641020  RH  055%=      5-min Rain = 0
KPG1 020208Z 01017KT 06/M02 A3037 RMK A01 T00631020  RH  055%=      5-min Rain = 0
KPG1 020209Z 01016KT 06/M02 A3037 RMK A01 T00631020  RH  055%=      5-min Rain = 0
KPG1 020210Z 01013KT 06/M02 A3037 RMK A01 T00631020  RH  055%=      5-min Rain = 0
KPG1 020211Z 01017G22KT 06/M02 A3037 RMK A01 T00631020  RH  055%=      5-min Rain = 0
KPG1 020212Z 01015G21KT 06/M02 A3036 RMK A01 T00631020  RH  055%=      5-min Rain = 0
KPG1 020213Z 01016KT 06/M02 A3036 RMK A01 T00631020  RH  055%=      5-min Rain = 0
KPG1 020214Z 01017G23KT 06/M02 A3036 RMK A01 T00621021  RH  055%=      5-min Rain = 0
KPG1 020215Z 02019G24KT 06/M02 A3036 RMK A01 T00621021  RH  055%=      5-min Rain = 0
KPG1 020216Z 01017KT 06/M02 A3036 RMK A01 T00621021  RH  055%=      5-min Rain = 0
KPG1 020217Z 01016G23KT 06/M02 A3037 RMK A01 T00621021  RH  055%=      5-min Rain = 0
KPG1 020218Z 01017KT 06/M02 A3037 RMK A01 T00621021  RH  055%=      5-min Rain = 0
KPG1 020219Z 00018KT 06/M02 A3037 RMK A01 T00621021  RH  055%=      5-min Rain = 0
KPG1 020220Z 01018KT 06/M02 A3037 RMK A01 T00621021  RH  055%=      5-min Rain = 0
KPG1 020221Z 00018KT 06/M02 A3037 RMK A01 T00621021  RH  055%=      5-min Rain = 0
KPG1 020222Z 01015G20KT 06/M02 A3037 RMK A01 T00621022  RH  055%=      5-min Rain = 0
KPG1 020223Z 00018KT 06/M02 A3037 RMK A01 T00621021  RH  055%=      5-min Rain = 0
KPG1 020224Z 01017KT 06/M02 A3037 RMK A01 T00621021  RH  055%=      5-min Rain = 0
KPG1 020225Z 01014G19KT 06/M02 A3037 RMK A01 T00621022  RH  055%=      5-min Rain = 0
KPG1 020226Z 01016G21KT 06/M02 A3037 RMK A01 T00621022  RH  055%=      5-min Rain = 0
KPG1 020227Z 01014KT 06/M02 A3037 RMK A01 T00621022  RH  055%=      5-min Rain = 0
KPG1 020228Z 01015KT 06/M02 A3037 RMK A01 T00621022  RH  055%=      5-min Rain = 0
KPG1 020229Z 01016KT 06/M02 A3037 RMK A01 T00621022  RH  055%=      5-min Rain = 0
KPG1 020230Z 01015KT 06/M02 A3037 RMK A01 T00621022  RH  055%=      5-min Rain = 0
KPG1 020231Z 01014G19KT 06/M02 A3037 RMK A01 T00621023  RH  055%=      5-min Rain = 0
KPG1 020232Z 02016KT 06/M02 A3037 RMK A01 T00621022  RH  055%=      5-min Rain = 0
KPG1 020233Z 01014KT 06/M02 A3037 RMK A01 T00621022  RH  055%=      5-min Rain = 0
KPG1 020234Z 01016G22KT 06/M02 A3037 RMK A01 T00621022  RH  055%=      5-min Rain = 0
KPG1 020235Z 01016KT 06/M02 A3037 RMK A01 T00621023  RH  055%=      5-min Rain = 0
KPG1 020236Z 01016KT 06/M02 A3037 RMK A01 T00611023  RH  055%=      5-min Rain = 0
KPG1 020237Z 01017G22KT 06/M02 A3037 RMK A01 T00611023  RH  055%=      5-min Rain = 0
KPG1 020238Z 00014KT 06/M02 A3037 RMK A01 T00611023  RH  055%=      5-min Rain = 0
KPG1 020239Z 01015KT 06/M02 A3037 RMK A01 T00611023  RH  055%=      5-min Rain = 0
KPG1 020240Z 01014KT 06/M02 A3037 RMK A01 T00611023  RH  055%=      5-min Rain = 0
KPG1 020241Z 01017KT 06/M02 A3037 RMK A01 T00611023  RH  055%=      5-min Rain = 0
KPG1 020242Z 02014KT 06/M02 A3037 RMK A01 T00611023  RH  055%=      5-min Rain = 0
KPG1 020243Z 01014KT 06/M02 A3037 RMK A01 T00611023  RH  055%=      5-min Rain = 0
KPG1 020244Z 02015KT 06/M02 A3037 RMK A01 T00601024  RH  055%=      5-min Rain = 0
KPG1 020245Z 02013KT 06/M02 A3037 RMK A01 T00601024  RH  055%=      5-min Rain = 0
KPG1 020246Z 02011KT 06/M02 A3037 RMK A01 T00601024  RH  055%=      5-min Rain = 0
KPG1 020247Z 02013KT 06/M02 A3037 RMK A01 T00601023  RH  055%=      5-min Rain = 0
KPG1 020248Z 02012KT 06/M02 A3037 RMK A01 T00601024  RH  055%=      5-min Rain = 0
KPG1 020249Z 02013KT 06/M02 A3037 RMK A01 T00601024  RH  055%=      5-min Rain = 0
KPG1 020250Z 03015KT 06/M02 A3037 RMK A01 T00591024  RH  055%=      5-min Rain = 0
KPG1 020251Z 02011KT 06/M02 A3037 RMK A01 T00591024  RH  055%=      5-min Rain = 0
KPG1 020252Z 02013G19KT 06/M02 A3037 RMK A01 T00591024  RH  055%=      5-min Rain = 0
KPG1 020253Z 02013KT 06/M02 A3037 RMK A01 T00591024  RH  055%=      5-min Rain = 0
KPG1 020254Z 02012KT 06/M02 A3037 RMK A01 T00591024  RH  055%=      5-min Rain = 0
KPG1 020255Z 03014KT 06/M02 A3038 RMK A01 T00591024  RH  055%=      5-min Rain = 0
KPG1 020256Z 03013KT 06/M02 A3038 RMK A01 T00581024  RH  056%=      5-min Rain = 0
KPG1 020257Z 03013KT 06/M02 A3038 RMK A01 T00581024  RH  056%=      5-min Rain = 0
KPG1 020258Z 03013KT 06/M02 A3037 RMK A01 T00581024  RH  056%=      5-min Rain = 0
KPG1 020259Z 03012KT 06/M02 A3037 RMK A01 T00581024  RH  056%=      5-min Rain = 0
KPG1 020300Z 02014KT 06/M02 A3037 RMK A01 T00581024  RH  056%=      5-min Rain = 0
KPG1 020301Z 02015KT 06/M02 A3037 RMK A01 T00581023  RH  056%=      5-min Rain = 0
KPG1 020302Z 02016KT 06/M02 A3037 RMK A01 T00581024  RH  056%=      5-min Rain = 0
KPG1 020303Z 02014KT 06/M02 A3037 RMK A01 T00581024  RH  056%=      5-min Rain = 0
KPG1 020304Z 02014KT 06/M02 A3037 RMK A01 T00571024  RH  056%=      5-min Rain = 0
KPG1 020305Z 02015KT 06/M02 A3037 RMK A01 T00571024  RH  056%=      5-min Rain = 0
KPG1 020306Z 02015KT 06/M02 A3037 RMK A01 T00571024  RH  056%=      5-min Rain = 0
KPG1 020307Z 02015KT 06/M02 A3038 RMK A01 T00571024  RH  056%=      5-min Rain = 0
KPG1 020308Z 03014KT 06/M02 A3038 RMK A01 T00571024  RH  056%=      5-min Rain = 0
KPG1 020309Z 02014KT 06/M02 A3038 RMK A01 T00571024  RH  056%=      5-min Rain = 0
KPG1 020310Z 03013KT 06/M02 A3038 RMK A01 T00561024  RH  056%=      5-min Rain = 0
KPG1 020311Z 03014KT 06/M02 A3038 RMK A01 T00561024  RH  056%=      5-min Rain = 0
KPG1 020312Z 02014KT 06/M03 A3038 RMK A01 T00561025  RH  056%=      5-min Rain = 0
KPG1 020313Z 02014KT 06/M03 A3038 RMK A01 T00561025  RH  056%=      5-min Rain = 0
KPG1 020314Z 03014KT 06/M03 A3038 RMK A01 T00561025  RH  056%=      5-min Rain = 0
KPG1 020315Z 02014KT 06/M03 A3038 RMK A01 T00561025  RH  056%=      5-min Rain = 0
KPG1 020316Z 02015KT 06/M03 A3038 RMK A01 T00561025  RH  056%=      5-min Rain = 0
KPG1 020317Z 02014KT 06/M03 A3038 RMK A01 T00561025  RH  056%=      5-min Rain = 0
KPG1 020318Z 02016G23KT 06/M03 A3037 RMK A01 T00551026  RH  056%=      5-min Rain = 0
KPG1 020319Z 02015KT 06/M03 A3037 RMK A01 T00561026  RH  055%=      5-min Rain = 0
KPG1 020320Z 02014KT 06/M03 A3037 RMK A01 T00561027  RH  055%=      5-min Rain = 0
KPG1 020321Z 02014KT 06/M03 A3037 RMK A01 T00561026  RH  055%=      5-min Rain = 0
KPG1 020322Z 02014KT 06/M03 A3038 RMK A01 T00561027  RH  055%=      5-min Rain = 0
KPG1 020323Z 02014KT 06/M03 A3038 RMK A01 T00551027  RH  055%=      5-min Rain = 0
KPG1 020324Z 02013KT 06/M03 A3038 RMK A01 T00561027  RH  055%=      5-min Rain = 0
KPG1 020325Z 03013KT 06/M03 A3038 RMK A01 T00561027  RH  055%=      5-min Rain = 0
KPG1 020326Z 03015KT 06/M03 A3038 RMK A01 T00551027  RH  055%=      5-min Rain = 0
KPG1 020327Z 04013KT 06/M03 A3038 RMK A01 T00551027  RH  055%=      5-min Rain = 0
KPG1 020328Z 04014KT 06/M03 A3038 RMK A01 T00561027  RH  055%=      5-min Rain = 0
KPG1 020329Z 04015KT 06/M03 A3038 RMK A01 T00551028  RH  055%=      5-min Rain = 0
KPG1 020330Z 04014KT 06/M03 A3038 RMK A01 T00561028  RH  055%=      5-min Rain = 0
KPG1 020331Z 04015KT 06/M03 A3038 RMK A01 T00561028  RH  055%=      5-min Rain = 0
KPG1 020332Z 03014KT 06/M03 A3038 RMK A01 T00561028  RH  055%=      5-min Rain = 0
KPG1 020333Z 03012KT 06/M03 A3038 RMK A01 T00561028  RH  055%=      5-min Rain = 0
KPG1 020334Z 03012KT 06/M03 A3038 RMK A01 T00561028  RH  055%=      5-min Rain = 0
KPG1 020335Z 02011KT 06/M03 A3038 RMK A01 T00551028  RH  055%=      5-min Rain = 0
KPG1 020336Z 02010KT 06/M03 A3038 RMK A01 T00551028  RH  055%=      5-min Rain = 0
KPG1 020337Z 02014KT 06/M03 A3038 RMK A01 T00551028  RH  055%=      5-min Rain = 0
KPG1 020338Z 02013KT 06/M03 A3038 RMK A01 T00551027  RH  055%=      5-min Rain = 0
KPG1 020339Z 02014KT 06/M03 A3038 RMK A01 T00551028  RH  055%=      5-min Rain = 0
KPG1 020340Z 02012KT 06/M03 A3038 RMK A01 T00551027  RH  055%=      5-min Rain = 0
KPG1 020341Z 02013KT 06/M03 A3038 RMK A01 T00551028  RH  055%=      5-min Rain = 0
KPG1 020342Z 02013KT 06/M03 A3038 RMK A01 T00551028  RH  055%=      5-min Rain = 0
KPG1 020343Z 02012KT 05/M03 A3038 RMK A01 T00541028  RH  055%=      5-min Rain = 0
KPG1 020344Z 02014KT 05/M03 A3039 RMK A01 T00541027  RH  056%=      5-min Rain = 0
KPG1 020345Z 02013KT 05/M03 A3039 RMK A01 T00541028  RH  056%=      5-min Rain = 0
KPG1 020346Z 02011KT 05/M03 A3039 RMK A01 T00541027  RH  056%=      5-min Rain = 0
KPG1 020347Z 02011KT 05/M03 A3039 RMK A01 T00541028  RH  056%=      5-min Rain = 0
KPG1 020348Z 02010KT 05/M03 A3039 RMK A01 T00541028  RH  056%=      5-min Rain = 0
KPG1 020349Z 02011KT 05/M03 A3038 RMK A01 T00531028  RH  056%=      5-min Rain = 0
KPG1 020350Z 01011KT 05/M03 A3038 RMK A01 T00531028  RH  056%=      5-min Rain = 0
KPG1 020351Z 02012KT 05/M03 A3038 RMK A01 T00531028  RH  056%=      5-min Rain = 0
KPG1 020352Z 01012KT 05/M03 A3038 RMK A01 T00531028  RH  056%=      5-min Rain = 0
KPG1 020353Z 01010KT 05/M03 A3038 RMK A01 T00531028  RH  056%=      5-min Rain = 0
KPG1 020354Z 02014KT 05/M03 A3038 RMK A01 T00531028  RH  056%=      5-min Rain = 0
KPG1 020355Z 02011KT 05/M03 A3038 RMK A01 T00531028  RH  056%=      5-min Rain = 0
KPG1 020356Z 03009KT 05/M03 A3038 RMK A01 T00531028  RH  056%=      5-min Rain = 0
KPG1 020357Z 03010KT 05/M03 A3038 RMK A01 T00521028  RH  056%=      5-min Rain = 0
KPG1 020358Z 04009KT 05/M03 A3039 RMK A01 T00521028  RH  056%=      5-min Rain = 0
KPG1 020359Z 04012KT 05/M03 A3039 RMK A01 T00521028  RH  056%=      5-min Rain = 0
KPG1 020400Z 04011KT 05/M03 A3039 RMK A01 T00531028  RH  056%=      5-min Rain = 0
KPG1 020401Z 04012KT 05/M03 A3039 RMK A01 T00541028  RH  056%=      5-min Rain = 0
KPG1 020402Z 04010KT 06/M03 A3039 RMK A01 T00551028  RH  055%=      5-min Rain = 0
KPG1 020403Z 04010KT 06/M03 A3039 RMK A01 T00551028  RH  055%=      5-min Rain = 0
KPG1 020404Z 04010KT 05/M03 A3039 RMK A01 T00541028  RH  055%=      5-min Rain = 0
KPG1 020405Z 04012KT 05/M03 A3038 RMK A01 T00541028  RH  055%=      5-min Rain = 0
KPG1 020406Z 04011KT 05/M03 A3038 RMK A01 T00541028  RH  055%=      5-min Rain = 0
KPG1 020407Z 04010KT 05/M03 A3038 RMK A01 T00541028  RH  055%=      5-min Rain = 0
KPG1 020408Z 04010KT 06/M03 A3038 RMK A01 T00551028  RH  055%=      5-min Rain = 0
KPG1 020409Z 04010KT 06/M03 A3038 RMK A01 T00551029  RH  055%=      5-min Rain = 0
KPG1 020410Z 03009KT 06/M03 A3038 RMK A01 T00551028  RH  055%=      5-min Rain = 0
KPG1 020411Z 04008KT 05/M03 A3038 RMK A01 T00541028  RH  055%=      5-min Rain = 0
KPG1 020412Z 04009KT 05/M03 A3038 RMK A01 T00531028  RH  056%=      5-min Rain = 0
KPG1 020413Z 04008KT 05/M03 A3038 RMK A01 T00531028  RH  056%=      5-min Rain = 0
KPG1 020414Z 03006KT 05/M03 A3038 RMK A01 T00531028  RH  056%=      5-min Rain = 0
KPG1 020415Z 04006KT 05/M03 A3039 RMK A01 T00521028  RH  056%=      5-min Rain = 0
KPG1 020416Z 04007KT 05/M03 A3039 RMK A01 T00521028  RH  056%=      5-min Rain = 0
KPG1 020417Z 04006KT 05/M03 A3039 RMK A01 T00521028  RH  056%=      5-min Rain = 0
KPG1 020418Z 03006KT 05/M03 A3039 RMK A01 T00511028  RH  056%=      5-min Rain = 0
KPG1 020419Z 02005KT 05/M03 A3039 RMK A01 T00501028  RH  057%=      5-min Rain = 0
KPG1 020420Z 02005KT 05/M03 A3039 RMK A01 T00491028  RH  057%=      5-min Rain = 0
KPG1 020421Z 02005KT 05/M03 A3039 RMK A01 T00491028  RH  057%=      5-min Rain = 0
KPG1 020422Z 02005KT 05/M03 A3039 RMK A01 T00481028  RH  058%=      5-min Rain = 0
KPG1 020423Z 01005KT 05/M03 A3039 RMK A01 T00471028  RH  058%=      5-min Rain = 0
KPG1 020424Z 01007KT 05/M03 A3039 RMK A01 T00471028  RH  058%=      5-min Rain = 0
KPG1 020425Z 03006KT 05/M03 A3039 RMK A01 T00481028  RH  058%=      5-min Rain = 0
KPG1 020426Z 01007KT 05/M03 A3039 RMK A01 T00491028  RH  058%=      5-min Rain = 0
KPG1 020427Z 02008KT 05/M03 A3039 RMK A01 T00491028  RH  057%=      5-min Rain = 0
KPG1 020428Z 01006KT 05/M03 A3039 RMK A01 T00491028  RH  057%=      5-min Rain = 0
KPG1 020429Z 03005KT 05/M03 A3039 RMK A01 T00501028  RH  057%=      5-min Rain = 0
KPG1 020430Z 01005KT 05/M03 A3039 RMK A01 T00501028  RH  057%=      5-min Rain = 0
KPG1 020431Z 04003KT 05/M03 A3039 RMK A01 T00501028  RH  057%=      5-min Rain = 0
KPG1 020432Z 03004KT 05/M03 A3039 RMK A01 T00491029  RH  057%=      5-min Rain = 0
KPG1 020433Z 04005KT 05/M03 A3039 RMK A01 T00471029  RH  058%=      5-min Rain = 0
KPG1 020434Z 04005KT 05/M03 A3039 RMK A01 T00471029  RH  058%=      5-min Rain = 0
KPG1 020435Z 03005KT 05/M03 A3039 RMK A01 T00461029  RH  058%=      5-min Rain = 0
KPG1 020436Z 02005KT 05/M03 A3039 RMK A01 T00461029  RH  059%=      5-min Rain = 0
KPG1 020437Z 02005KT 05/M03 A3039 RMK A01 T00461028  RH  059%=      5-min Rain = 0
KPG1 020438Z 02005KT 05/M03 A3039 RMK A01 T00451029  RH  059%=      5-min Rain = 0
KPG1 020439Z 02005KT 05/M03 A3039 RMK A01 T00461028  RH  059%=      5-min Rain = 0
KPG1 020440Z 02006KT 05/M03 A3039 RMK A01 T00451029  RH  059%=      5-min Rain = 0
KPG1 020441Z 01006KT 05/M03 A3039 RMK A01 T00451029  RH  059%=      5-min Rain = 0
KPG1 020442Z 02007KT 04/M03 A3039 RMK A01 T00441029  RH  059%=      5-min Rain = 0
KPG1 020443Z 02006KT 04/M03 A3039 RMK A01 T00441029  RH  059%=      5-min Rain = 0
KPG1 020444Z 03006KT 05/M03 A3039 RMK A01 T00451029  RH  059%=      5-min Rain = 0
KPG1 020445Z 03005KT 05/M03 A3039 RMK A01 T00451029  RH  059%=      5-min Rain = 0
KPG1 020446Z 03005KT 05/M03 A3039 RMK A01 T00451029  RH  059%=      5-min Rain = 0
KPG1 020447Z 04005KT 05/M03 A3039 RMK A01 T00451029  RH  059%=      5-min Rain = 0
KPG1 020448Z 04006KT 05/M03 A3039 RMK A01 T00451029  RH  059%=      5-min Rain = 0
KPG1 020449Z 04005KT 05/M03 A3039 RMK A01 T00451029  RH  059%=      5-min Rain = 0
KPG1 020450Z 04006KT 05/M03 A3039 RMK A01 T00451029  RH  059%=      5-min Rain = 0
KPG1 020451Z 04006KT 05/M03 A3039 RMK A01 T00451029  RH  059%=      5-min Rain = 0
KPG1 020452Z 04006KT 05/M03 A3039 RMK A01 T00451029  RH  059%=      5-min Rain = 0
KPG1 020453Z 03006KT 05/M03 A3039 RMK A01 T00461029  RH  058%=      5-min Rain = 0
KPG1 020454Z 03006KT 05/M03 A3039 RMK A01 T00471029  RH  058%=      5-min Rain = 0
KPG1 020455Z 02006KT 05/M03 A3039 RMK A01 T00471029  RH  058%=      5-min Rain = 0
KPG1 020456Z 02006KT 05/M03 A3039 RMK A01 T00471029  RH  058%=      5-min Rain = 0
KPG1 020457Z 02006KT 05/M03 A3039 RMK A01 T00471029  RH  058%=      5-min Rain = 0
KPG1 020458Z 02006KT 05/M03 A3039 RMK A01 T00471029  RH  058%=      5-min Rain = 0
KPG1 020459Z 01005KT 05/M03 A3039 RMK A01 T00471029  RH  058%=      5-min Rain = 0
KPG1 020500Z 01004KT 05/M03 A3039 RMK A01 T00471029  RH  058%=      5-min Rain = 0
KPG1 020501Z 01004KT 05/M03 A3039 RMK A01 T00471029  RH  058%=      5-min Rain = 0
KPG1 020502Z 02004KT 05/M03 A3039 RMK A01 T00461029  RH  058%=      5-min Rain = 0
KPG1 020503Z 01004KT 05/M03 A3039 RMK A01 T00461029  RH  058%=      5-min Rain = 0
KPG1 020504Z 00003KT 05/M03 A3039 RMK A01 T00461029  RH  058%=      5-min Rain = 0
KPG1 020505Z 01004KT 05/M03 A3039 RMK A01 T00471029  RH  058%=      5-min Rain = 0
KPG1 020506Z 01003KT 05/M03 A3039 RMK A01 T00471029  RH  058%=      5-min Rain = 0
KPG1 020507Z 00003KT 05/M03 A3039 RMK A01 T00471029  RH  058%=      5-min Rain = 0
KPG1 020508Z 01003KT 05/M03 A3039 RMK A01 T00461030  RH  058%=      5-min Rain = 0
KPG1 020509Z 02003KT 05/M03 A3039 RMK A01 T00461030  RH  058%=      5-min Rain = 0
KPG1 020510Z 02003KT 05/M03 A3039 RMK A01 T00461029  RH  058%=      5-min Rain = 0
KPG1 020511Z 02003KT 05/M03 A3039 RMK A01 T00451030  RH  058%=      5-min Rain = 0
KPG1 020512Z 02003KT 05/M03 A3038 RMK A01 T00451030  RH  058%=      5-min Rain = 0
KPG1 020513Z 03003KT 04/M03 A3038 RMK A01 T00441030  RH  059%=      5-min Rain = 0
KPG1 020514Z 04003KT 04/M03 A3038 RMK A01 T00441030  RH  059%=      5-min Rain = 0
KPG1 020515Z 04004KT 04/M03 A3038 RMK A01 T00441029  RH  059%=      5-min Rain = 0
KPG1 020516Z 04004KT 04/M03 A3038 RMK A01 T00431029  RH  059%=      5-min Rain = 0
KPG1 020517Z 05004KT 04/M03 A3038 RMK A01 T00431029  RH  059%=      5-min Rain = 0
KPG1 020518Z 05004KT 04/M03 A3038 RMK A01 T00431029  RH  059%=      5-min Rain = 0
KPG1 020519Z 05004KT 04/M03 A3038 RMK A01 T00421030  RH  060%=      5-min Rain = 0
KPG1 020520Z 04004KT 04/M03 A3038 RMK A01 T00431029  RH  059%=      5-min Rain = 0
KPG1 020521Z 04004KT 04/M03 A3038 RMK A01 T00431029  RH  059%=      5-min Rain = 0
KPG1 020522Z 04004KT 04/M03 A3038 RMK A01 T00421029  RH  060%=      5-min Rain = 0
KPG1 020523Z 04004KT 04/M03 A3038 RMK A01 T00411030  RH  060%=      5-min Rain = 0
KPG1 020524Z 03005KT 04/M03 A3038 RMK A01 T00411030  RH  060%=      5-min Rain = 0
KPG1 020525Z 02005KT 04/M03 A3038 RMK A01 T00411029  RH  060%=      5-min Rain = 0
KPG1 020526Z 02005KT 04/M03 A3038 RMK A01 T00411030  RH  060%=      5-min Rain = 0
KPG1 020527Z 02005KT 04/M03 A3038 RMK A01 T00411030  RH  060%=      5-min Rain = 0
KPG1 020528Z 01006KT 04/M03 A3038 RMK A01 T00411030  RH  060%=      5-min Rain = 0
KPG1 020529Z 00005KT 04/M03 A3038 RMK A01 T00421030  RH  060%=      5-min Rain = 0
KPG1 020530Z 00005KT 04/M03 A3038 RMK A01 T00441029  RH  059%=      5-min Rain = 0
KPG1 020531Z 35004KT 05/M03 A3038 RMK A01 T00451029  RH  059%=      5-min Rain = 0
KPG1 020532Z 34005KT 05/M03 A3038 RMK A01 T00461029  RH  058%=      5-min Rain = 0
KPG1 020533Z 35004KT 05/M03 A3038 RMK A01 T00461030  RH  058%=      5-min Rain = 0
KPG1 020534Z 36004KT 05/M03 A3038 RMK A01 T00461030  RH  058%=      5-min Rain = 0
KPG1 020535Z 01005KT 05/M03 A3038 RMK A01 T00451030  RH  058%=      5-min Rain = 0
KPG1 020536Z 01004KT 05/M03 A3038 RMK A01 T00451030  RH  058%=      5-min Rain = 0
KPG1 020537Z 00004KT 05/M03 A3038 RMK A01 T00461030  RH  058%=      5-min Rain = 0
KPG1 020538Z 02004KT 05/M03 A3037 RMK A01 T00461030  RH  058%=      5-min Rain = 0
KPG1 020539Z 01004KT 05/M03 A3037 RMK A01 T00461030  RH  058%=      5-min Rain = 0
KPG1 020540Z 02004KT 05/M03 A3037 RMK A01 T00461030  RH  058%=      5-min Rain = 0
KPG1 020541Z 02003KT 05/M03 A3037 RMK A01 T00461031  RH  058%=      5-min Rain = 0
KPG1 020542Z 02003KT 05/M03 A3037 RMK A01 T00451030  RH  058%=      5-min Rain = 0
KPG1 020543Z 03002KT 04/M03 A3037 RMK A01 T00441030  RH  058%=      5-min Rain = 0
KPG1 020544Z 05003KT 04/M03 A3037 RMK A01 T00431031  RH  059%=      5-min Rain = 0
KPG1 020545Z 05003KT 04/M03 A3037 RMK A01 T00431031  RH  059%=      5-min Rain = 0
KPG1 020546Z 05004KT 04/M03 A3037 RMK A01 T00421030  RH  059%=      5-min Rain = 0
KPG1 020547Z 05004KT 04/M03 A3037 RMK A01 T00411030  RH  060%=      5-min Rain = 0
KPG1 020548Z 04004KT 04/M03 A3037 RMK A01 T00401030  RH  060%=      5-min Rain = 0
KPG1 020549Z 04004KT 04/M03 A3037 RMK A01 T00401030  RH  060%=      5-min Rain = 0
KPG1 020550Z 03004KT 04/M03 A3037 RMK A01 T00411030  RH  060%=      5-min Rain = 0
KPG1 020551Z 01004KT 04/M03 A3037 RMK A01 T00411030  RH  060%=      5-min Rain = 0
KPG1 020552Z 01004KT 04/M03 A3037 RMK A01 T00411030  RH  060%=      5-min Rain = 0
KPG1 020553Z 02004KT 04/M03 A3037 RMK A01 T00401030  RH  060%=      5-min Rain = 0
KPG1 020554Z 02004KT 04/M03 A3037 RMK A01 T00401030  RH  060%=      5-min Rain = 0
KPG1 020555Z 00003KT 04/M03 A3036 RMK A01 T00401030  RH  060%=      5-min Rain = 0
KPG1 020556Z 01003KT 04/M03 A3036 RMK A01 T00391030  RH  060%=      5-min Rain = 0
KPG1 020557Z 00003KT 04/M03 A3036 RMK A01 T00391031  RH  060%=      5-min Rain = 0
KPG1 020558Z 00004KT 04/M03 A3036 RMK A01 T00391031  RH  060%=      5-min Rain = 0
KPG1 020559Z 01005KT 04/M03 A3036 RMK A01 T00401031  RH  060%=      5-min Rain = 0

Page generated in 0.0718 seconds.